SondeTracker

Meteorological Radiosondes Database

Operations

Sounding was ended - last measurement: 2022-12-06 01:53:34z

MAP
About Radiosonde

Number: S4270394

Launch Site: A Coruña (ES)

Type: RS41-SGP

AUX: NO

Frequency: 404.001 MHz

Max Speed: 107 km/h at 31672 m

Average Speed: 38.01 km/h

Max Altitude: 32080 m

Average Ascent Speed: 4.09 m/s

Average Descent Speed: 17.84 m/s

Status: UNKNOWN

Status Changes
Launch Site Type AUX Frequency Status Finder Landing Point Description Changes made by
APRS Statistics

Received Frames: 566

First Frame [UTC]: 2022-12-05 23:18:00z

Last Frame [UTC]: 2022-12-06 01:53:34z

Receivers: CT7AUS-11, EA1JAY-15, EA1JAY-16, EA4EKH-11, EB4FMT-14

Flight Time: 02:35:34 h

Distance From First Measurement: 79.64 km

Nearest City: Castro de Rey (ES) [15.94 km]

Nearest Hunter: ea1hcx [19.32 km]

Ground Altitude: 759 m

Distance from QTH: 0.00 km

APRS Data
Receiver Number Date/Time [UTC] φ λ Course [°] Speed [km/h] Altitude [m] Description
EA1JAY-16S42703942022-12-06 01:53:3443.3457-7.4540734301035Clb=-7.0m/s p=899.7hPa t=8.3C h=71.9% 404.000MHz Type=RS41-SGP TxOff=8h2m rdzTTGOsonde
EA1JAY-16S42703942022-12-06 01:53:1243.3444-7.4552129311188Clb=-6.7m/s p=883.1hPa t=7.4C h=75.4% 404.000MHz Type=RS41-SGP TxOff=8h2m rdzTTGOsonde
EA1JAY-16S42703942022-12-06 01:52:5243.3431-7.4560927281326Clb=-6.8m/s p=868.4hPa t=6.9C h=79.7% 404.000MHz Type=RS41-SGP TxOff=8h3m rdzTTGOsonde
EA1JAY-16S42703942022-12-06 01:52:3243.3419-7.4568826261461Clb=-6.6m/s p=854.2hPa t=5.9C h=86.6% 404.000MHz Type=RS41-SGP TxOff=8h3m rdzTTGOsonde
EA1JAY-16S42703942022-12-06 01:52:1143.3408-7.4577230241617Clb=-7.4m/s p=838.3hPa t=4.5C h=93.8% 404.000MHz Type=RS41-SGP TxOff=8h3m rdzTTGOsonde
EA1JAY-16S42703942022-12-06 01:51:5143.3399-7.4582815151769Clb=-7.1m/s p=822.7hPa t=4.2C h=85.2% 404.000MHz Type=RS41-SGP TxOff=8h3m rdzTTGOsonde
EA1JAY-16S42703942022-12-06 01:51:3043.3393-7.45834357111928Clb=-8.3m/s p=806.8hPa t=3.5C h=83.5% 404.000MHz Type=RS41-SGP TxOff=8h3m rdzTTGOsonde
EA1JAY-16S42703942022-12-06 01:51:1043.3387-7.458252112085Clb=-7.1m/s p=791.2hPa t=2.2C h=86.9% 404.000MHz Type=RS41-SGP TxOff=8h4m rdzTTGOsonde
EA1JAY-16S42703942022-12-06 01:50:4943.3382-7.45843692251Clb=-8.9m/s p=775.3hPa t=1.0C h=89.5% 404.000MHz Type=RS41-SGP TxOff=8h4m rdzTTGOsonde
EA1JAY-16S42703942022-12-06 01:50:2843.3378-7.4588529132408Clb=-7.4m/s p=760.2hPa t=-0.0C h=91.7% 404.000MHz Type=RS41-SGP TxOff=8h4m rdzTTGOsonde
EA1JAY-16S42703942022-12-06 01:50:1043.3371-7.45897358132551Clb=-7.5m/s p=746.5hPa t=0.4C h=78.6% 404.000MHz Type=RS41-SGP TxOff=8h5m rdzTTGOsonde
EA1JAY-15S42703942022-12-06 01:50:0943.3371-7.45895353112567Clb=-7.5m/s p=745.2hPa t=0.3C h=78.8% 404.000MHz Type=RS41-SGP rdzTTGOsonde
EA1JAY-16S42703942022-12-06 01:49:4743.3366-7.45872336112712Clb=-8.6m/s p=731.8hPa t=-1.0C h=81.3% 404.000MHz Type=RS41-SGP TxOff=8h5m rdzTTGOsonde
EA1JAY-15S42703942022-12-06 01:49:4543.3365-7.4586832572728Clb=-7.8m/s p=730.3hPa t=-1.1C h=81.4% 404.000MHz Type=RS41-SGP rdzTTGOsonde
EA1JAY-16S42703942022-12-06 01:49:2743.3361-7.45838339152867Clb=-8.7m/s p=717.8hPa t=-2.0C h=80.4% 404.000MHz Type=RS41-SGP TxOff=8h6m rdzTTGOsonde
EA1JAY-15S42703942022-12-06 01:49:2243.3359-7.4583344152907Clb=-7.9m/s p=714.2hPa t=-2.2C h=80.8% 404.000MHz Type=RS41-SGP TxOff=8h6m rdzTTGOsonde
EA1JAY-16S42703942022-12-06 01:49:0643.3352-7.45814355173043Clb=-9.4m/s p=702.3hPa t=-3.1C h=82.3% 404.000MHz Type=RS41-SGP TxOff=8h6m rdzTTGOsonde
EA1JAY-15S42703942022-12-06 01:48:5943.3349-7.4581610173107Clb=-9.8m/s p=696.5hPa t=-2.9C h=72.6% 404.000MHz Type=RS41-SGP TxOff=8h6m rdzTTGOsonde
EA1JAY-16S42703942022-12-06 01:48:4543.3344-7.4585329193246Clb=-10.7m/s p=684.4hPa t=-3.9C h=75.6% 404.000MHz Type=RS41-SGP TxOff=8h6m rdzTTGOsonde
EA1JAY-15S42703942022-12-06 01:48:3843.3341-7.4587836203320Clb=-11.1m/s p=677.9hPa t=-4.5C h=77.4% 404.000MHz Type=RS41-SGP TxOff=8h7m rdzTTGOsonde
EA1JAY-16S42703942022-12-06 01:48:2543.3336-7.4593135173460Clb=-11.1m/s p=666.0hPa t=-5.1C h=68.1% 404.000MHz Type=RS41-SGP TxOff=8h7m rdzTTGOsonde
EA1JAY-15S42703942022-12-06 01:48:1743.3334-7.4595629133548Clb=-10.6m/s p=658.5hPa t=-5.7C h=67.4% 404.000MHz Type=RS41-SGP TxOff=8h7m rdzTTGOsonde
EA1JAY-16S42703942022-12-06 01:48:0543.333-7.4598849113677Clb=-10.8m/s p=647.8hPa t=-6.7C h=59.1% 404.000MHz Type=RS41-SGP TxOff=8h7m rdzTTGOsonde
EA1JAY-15S42703942022-12-06 01:47:5543.3328-7.4601660133783Clb=-10.9m/s p=639.1hPa t=-7.6C h=56.6% 404.000MHz Type=RS41-SGP TxOff=8h7m rdzTTGOsonde
EA1JAY-16S42703942022-12-06 01:47:4543.3326-7.460551133890Clb=-10.9m/s p=630.4hPa t=-7.2C h=30.3% 404.000MHz Type=RS41-SGP TxOff=8h8m rdzTTGOsonde
EA1JAY-15S42703942022-12-06 01:47:3343.3324-7.4608753114015Clb=-10.4m/s p=620.1hPa t=-7.9C h=37.6% 404.000MHz Type=RS41-SGP TxOff=8h8m rdzTTGOsonde
EA1JAY-16S42703942022-12-06 01:47:2443.3322-7.461053394112Clb=-11.1m/s p=612.6hPa t=-8.5C h=34.5% 404.000MHz Type=RS41-SGP TxOff=8h8m rdzTTGOsonde
EA1JAY-15S42703942022-12-06 01:47:1243.3321-7.461218564238Clb=-10.9m/s p=602.7hPa t=-9.2C h=31.0% 404.000MHz Type=RS41-SGP TxOff=8h8m rdzTTGOsonde
EA1JAY-16S42703942022-12-06 01:47:0343.3321-7.461339644333Clb=-11.2m/s p=595.3hPa t=-10.2C h=32.9% 404.000MHz Type=RS41-SGP TxOff=8h8m rdzTTGOsonde
EA1JAY-15S42703942022-12-06 01:46:5143.3321-7.46167694465Clb=-11.8m/s p=585.3hPa t=-10.1C h=7.6% 404.000MHz Type=RS41-SGP TxOff=8h8m rdzTTGOsonde
EA1JAY-16S42703942022-12-06 01:46:4343.3321-7.4618611094555Clb=-11.6m/s p=578.5hPa t=-10.6C h=8.7% 404.000MHz Type=RS41-SGP TxOff=8h8m rdzTTGOsonde
EA1JAY-15S42703942022-12-06 01:46:3043.3321-7.462329194698Clb=-11.7m/s p=567.9hPa t=-11.7C h=8.7% 404.000MHz Type=RS41-SGP TxOff=8h8m rdzTTGOsonde
EA1JAY-16S42703942022-12-06 01:46:2243.3322-7.46266106134787Clb=-11.7m/s p=561.3hPa t=-12.1C h=4.3% 404.000MHz Type=RS41-SGP TxOff=8h8m rdzTTGOsonde
EA1JAY-15S42703942022-12-06 01:46:0943.3324-7.46342108174926Clb=-11.4m/s p=551.0hPa t=-13.2C h=4.5% 404.000MHz Type=RS41-SGP TxOff=8h8m rdzTTGOsonde
EA1JAY-16S42703942022-12-06 01:46:0143.3325-7.46396115245016Clb=-11.4m/s p=544.6hPa t=-13.9C h=5.1% 404.000MHz Type=RS41-SGP TxOff=8h9m rdzTTGOsonde
EB4FMT-14S42703942022-12-06 01:46:0043.3326-7.46419110225047Clb=-11.3m/s t=-14.1C h=5.3% p=542.3hPa 404.001 MHz Type=RS41-SGP ser=S4270394 Radiosonde auto_rx v1.5.9
EA1JAY-15S42703942022-12-06 01:45:4943.3328-7.46481106205149Clb=-11.5m/s p=535.2hPa t=-15.1C h=5.7% 404.000MHz Type=RS41-SGP rdzTTGOsonde
EA1JAY-16S42703942022-12-06 01:45:4043.3329-7.46545104205246Clb=-11.7m/s p=528.3hPa t=-16.0C h=6.1% 404.000MHz Type=RS41-SGP TxOff=8h9m rdzTTGOsonde
EB4FMT-14S42703942022-12-06 01:45:3043.3331-7.46636105225378Clb=-11.1m/s t=-17.3C h=6.4% p=519.1hPa 404.001 MHz Type=RS41-SGP ser=S4270394 Radiosonde auto_rx v1.5.9
EA1JAY-15S42703942022-12-06 01:45:2843.3331-7.46636107225378Clb=-11.1m/s p=519.1hPa t=-17.3C h=6.4% 404.000MHz Type=RS41-SGP rdzTTGOsonde
EA1JAY-16S42703942022-12-06 01:45:1943.3333-7.46708109285476Clb=-11.7m/s p=512.5hPa t=-17.8C h=7.6% 404.000MHz Type=RS41-SGP TxOff=8h9m rdzTTGOsonde
EA1JAY-15S42703942022-12-06 01:45:0643.3335-7.46825111305620Clb=-11.7m/s p=502.5hPa t=-19.1C h=9.5% 404.000MHz Type=RS41-SGP TxOff=8h10m rdzTTGOsonde
EA1JAY-16S42703942022-12-06 01:44:5943.3337-7.46889111305699Clb=-11.6m/s p=497.2hPa t=-19.9C h=9.9% 404.000MHz Type=RS41-SGP TxOff=8h10m rdzTTGOsonde
EA1JAY-15S42703942022-12-06 01:44:4043.3342-7.47088103375916Clb=-12.4m/s p=482.9hPa t=-21.4C h=10.2% 404.000MHz Type=RS41-SGP TxOff=8h10m rdzTTGOsonde
EA1JAY-16S42703942022-12-06 01:44:3843.3342-7.47112106375940Clb=-12.4m/s p=481.4hPa t=-21.6C h=10.4% 404.000MHz Type=RS41-SGP TxOff=8h10m rdzTTGOsonde
EB4FMT-14S42703942022-12-06 01:44:3043.3345-7.4723199356054Clb=-12.1m/s t=-22.6C h=12.3% p=474.0hPa 404.001 MHz Type=RS41-SGP ser=S4270394 Radiosonde auto_rx v1.5.9
EA1JAY-16S42703942022-12-06 01:44:1743.3346-7.4735795316179Clb=-12.7m/s p=465.9hPa t=-23.8C h=11.2% 404.000MHz Type=RS41-SGP TxOff=8h11m rdzTTGOsonde
EA1JAY-15S42703942022-12-06 01:44:1543.3346-7.473891336203Clb=-12.8m/s p=464.5hPa t=-24.0C h=11.3% 404.000MHz Type=RS41-SGP rdzTTGOsonde
EB4FMT-14S42703942022-12-06 01:44:0043.3346-7.4760182416406Clb=-12.7m/s t=-25.2C h=10.2% p=451.8hPa 404.001 MHz Type=RS41-SGP ser=S4270394 Radiosonde auto_rx v1.5.9
EA1JAY-16S42703942022-12-06 01:43:5743.3346-7.4761580416418Clb=-12.5m/s p=451.0hPa t=-25.1C h=9.6% 404.000MHz Type=RS41-SGP TxOff=8h11m rdzTTGOsonde
EA1JAY-16S42703942022-12-06 01:43:3643.3341-7.479182416665Clb=-11.7m/s p=435.8hPa t=-26.6C h=5.5% 404.000MHz Type=RS41-SGP TxOff=8h11m rdzTTGOsonde
EB4FMT-14S42703942022-12-06 01:43:3043.334-7.480286416761Clb=-13.0m/s t=-27.1C h=4.2% p=430.0hPa 404.001 MHz Type=RS41-SGP ser=S4270394 Radiosonde auto_rx v1.5.9
EA1JAY-16S42703942022-12-06 01:43:1543.3339-7.4820795466917Clb=-12.6m/s p=420.9hPa t=-28.5C h=7.3% 404.000MHz Type=RS41-SGP TxOff=8h12m rdzTTGOsonde
EB4FMT-14S42703942022-12-06 01:43:0043.334-7.4847293447122Clb=-12.5m/s t=-30.5C h=13.9% p=409.0hPa 404.001 MHz Type=RS41-SGP ser=S4270394 Radiosonde auto_rx v1.5.9
EA1JAY-16S42703942022-12-06 01:42:5543.334-7.4851893467158Clb=-12.2m/s p=406.9hPa t=-30.9C h=15.0% 404.000MHz Type=RS41-SGP TxOff=8h12m rdzTTGOsonde
EA1JAY-16S42703942022-12-06 01:42:3543.3341-7.488492507397Clb=-13.0m/s p=393.3hPa t=-33.1C h=16.2% 404.000MHz Type=RS41-SGP TxOff=8h13m rdzTTGOsonde
EB4FMT-14S42703942022-12-06 01:42:3043.3341-7.4895596487483Clb=-13.0m/s t=-34.0C h=17.2% p=388.6hPa 404.001 MHz Type=RS41-SGP ser=S4270394 Radiosonde auto_rx v1.5.9
EA1JAY-16S42703942022-12-06 01:42:1543.3341-7.4917893527646Clb=-12.4m/s p=379.7hPa t=-35.5C h=19.3% 404.000MHz Type=RS41-SGP TxOff=8h13m rdzTTGOsonde
EB4FMT-14S42703942022-12-06 01:42:0043.334-7.4948588507856Clb=-13.3m/s t=-37.5C h=18.8% p=368.3hPa 404.001 MHz Type=RS41-SGP ser=S4270394 Radiosonde auto_rx v1.5.9
EA1JAY-16S42703942022-12-06 01:41:5443.334-7.4955185487908Clb=-13.6m/s p=365.6hPa t=-37.9C h=15.7% 404.000MHz Type=RS41-SGP TxOff=8h13m rdzTTGOsonde
EA1JAY-15S42703942022-12-06 01:41:5343.334-7.4956888507921Clb=-12.2m/s p=364.9hPa t=-38.0C h=15.0% 404.000MHz Type=RS41-SGP rdzTTGOsonde
EA1JAY-16S42703942022-12-06 01:41:3343.3338-7.4989690488170Clb=-12.9m/s p=351.9hPa t=-39.3C h=9.0% 404.000MHz Type=RS41-SGP TxOff=8h14m rdzTTGOsonde
EA1JAY-15S42703942022-12-06 01:41:3043.3338-7.4994485448208Clb=-13.6m/s p=349.9hPa t=-39.5C h=9.3% 404.000MHz Type=RS41-SGP rdzTTGOsonde
EA1JAY-16S42703942022-12-06 01:41:1243.3336-7.5021985488441Clb=-13.5m/s p=338.2hPa t=-41.0C h=7.8% 404.000MHz Type=RS41-SGP TxOff=8h14m rdzTTGOsonde
EA1JAY-15S42703942022-12-06 01:41:0943.3335-7.5026685468481Clb=-13.3m/s p=336.3hPa t=-41.2C h=6.9% 404.000MHz Type=RS41-SGP rdzTTGOsonde
EB4FMT-14S42703942022-12-06 01:41:0043.3334-7.5043681438626Clb=-12.8m/s t=-42.2C h=6.8% p=329.1hPa 404.001 MHz Type=RS41-SGP ser=S4270394 Radiosonde auto_rx v1.5.9
EA1JAY-16S42703942022-12-06 01:40:5143.3333-7.5054384448717Clb=-13.1m/s p=324.7hPa t=-43.0C h=6.5% 404.000MHz Type=RS41-SGP TxOff=8h14m rdzTTGOsonde
EA1JAY-15S42703942022-12-06 01:40:4843.3332-7.5058784438756Clb=-14.0m/s p=322.9hPa t=-43.3C h=6.6% 404.000MHz Type=RS41-SGP TxOff=8h14m rdzTTGOsonde
EA1JAY-16S42703942022-12-06 01:40:3143.3327-7.508364438988Clb=-13.8m/s p=311.9hPa t=-44.6C h=6.0% 404.000MHz Type=RS41-SGP TxOff=8h14m rdzTTGOsonde
EB4FMT-14S42703942022-12-06 01:40:3043.3326-7.5086956469026Clb=-13.8m/s t=-44.8C h=5.9% p=310.1hPa 404.001 MHz Type=RS41-SGP ser=S4270394 Radiosonde auto_rx v1.5.9
EA1JAY-15S42703942022-12-06 01:40:2843.3326-7.5086957469026Clb=-13.8m/s p=310.1hPa t=-44.8C h=6.0% 404.000MHz Type=RS41-SGP TxOff=8h14m rdzTTGOsonde
EA1JAY-16S42703942022-12-06 01:40:1043.3314-7.5113461569268Clb=-14.1m/s p=299.1hPa t=-46.5C h=7.0% 404.000MHz Type=RS41-SGP TxOff=8h14m rdzTTGOsonde
EA1JAY-15S42703942022-12-06 01:40:0843.3312-7.5116659549295Clb=-13.8m/s p=297.9hPa t=-46.7C h=7.2% 404.000MHz Type=RS41-SGP TxOff=8h15m rdzTTGOsonde
EB4FMT-14S42703942022-12-06 01:40:0043.3305-7.5133660599433Clb=-14.4m/s t=-47.9C h=8.1% p=291.7hPa 404.001 MHz Type=RS41-SGP ser=S4270394 Radiosonde auto_rx v1.5.9
EA1JAY-16S42703942022-12-06 01:39:5043.33-7.5148667599547Clb=-14.4m/s p=286.8hPa t=-48.7C h=9.2% 404.000MHz Type=RS41-SGP TxOff=8h15m rdzTTGOsonde
EA1JAY-15S42703942022-12-06 01:39:4743.3298-7.5154371639589Clb=-14.2m/s p=284.9hPa t=-49.0C h=9.7% 404.000MHz Type=RS41-SGP TxOff=8h15m rdzTTGOsonde
EA1JAY-16S42703942022-12-06 01:39:2943.329-7.5187675489837Clb=-14.5m/s p=274.4hPa t=-50.3C h=17.3% 404.000MHz Type=RS41-SGP TxOff=8h15m rdzTTGOsonde
EA1JAY-15S42703942022-12-06 01:39:2643.3289-7.5192368509879Clb=-14.6m/s p=272.6hPa t=-50.6C h=19.3% 404.000MHz Type=RS41-SGP TxOff=8h15m rdzTTGOsonde
EA1JAY-16S42703942022-12-06 01:39:0843.3281-7.52229725010129Clb=-14.7m/s p=262.3hPa t=-52.3C h=29.9% 404.000MHz Type=RS41-SGP TxOff=8h16m rdzTTGOsonde
EA1JAY-15S42703942022-12-06 01:39:0343.3279-7.52308694610202Clb=-14.7m/s p=259.4hPa t=-53.0C h=31.6% 404.000MHz Type=RS41-SGP TxOff=8h16m rdzTTGOsonde
EB4FMT-14S42703942022-12-06 01:39:0043.3277-7.52383664410274Clb=-13.3m/s t=-53.7C h=33.2% p=256.4hPa 404.001 MHz Type=RS41-SGP ser=S4270394 Radiosonde auto_rx v1.5.9
EA1JAY-16S42703942022-12-06 01:38:4843.3272-7.52532695010412Clb=-14.4m/s p=251.1hPa t=-54.6C h=31.2% 404.000MHz Type=RS41-SGP TxOff=8h16m rdzTTGOsonde
EA1JAY-15S42703942022-12-06 01:38:4243.327-7.52629714810496Clb=-15.0m/s p=247.8hPa t=-55.3C h=30.6% 404.000MHz Type=RS41-SGP TxOff=8h16m rdzTTGOsonde
EB4FMT-14S42703942022-12-06 01:38:3043.3263-7.52848634610691Clb=-14.8m/s t=-56.4C h=26.9% p=240.3hPa 404.001 MHz Type=RS41-SGP ser=S4270394 Radiosonde auto_rx v1.5.9
EA1JAY-16S42703942022-12-06 01:38:2743.3262-7.52862654610705Clb=-14.5m/s p=239.8hPa t=-56.4C h=26.8% 404.000MHz Type=RS41-SGP TxOff=8h16m rdzTTGOsonde
EA1JAY-15S42703942022-12-06 01:38:1743.3257-7.53009664810848Clb=-15.8m/s p=234.4hPa t=-57.1C h=27.6% 404.000MHz Type=RS41-SGP rdzTTGOsonde
EA1JAY-16S42703942022-12-06 01:38:0743.3252-7.53156645210986Clb=-15.7m/s p=229.4hPa t=-57.0C h=25.8% 404.000MHz Type=RS41-SGP TxOff=8h17m rdzTTGOsonde
EB4FMT-14S42703942022-12-06 01:38:0043.3245-7.53304596311118Clb=-15.5m/s t=-57.7C h=22.9% p=224.6hPa 404.001 MHz Type=RS41-SGP ser=S4270394 Radiosonde auto_rx v1.5.9
EA1JAY-15S42703942022-12-06 01:37:5143.324-7.53437626511218Clb=-13.9m/s p=221.0hPa t=-57.6C h=19.8% 404.000MHz Type=RS41-SGP rdzTTGOsonde
EA1JAY-16S42703942022-12-06 01:37:4743.3237-7.53515656311274Clb=-14.3m/s p=219.1hPa t=-57.8C h=17.9% 404.000MHz Type=RS41-SGP TxOff=8h17m rdzTTGOsonde
EB4FMT-14S42703942022-12-06 01:37:3043.3226-7.53895736511547Clb=-15.9m/s t=-57.7C h=10.7% p=209.9hPa 404.001 MHz Type=RS41-SGP ser=S4270394 Radiosonde auto_rx v1.5.9
EA1JAY-16S42703942022-12-06 01:37:2643.3225-7.53939776711578Clb=-15.3m/s p=208.9hPa t=-57.8C h=10.3% 404.000MHz Type=RS41-SGP TxOff=8h18m rdzTTGOsonde
EA1JAY-15S42703942022-12-06 01:37:0743.3219-7.54333795911860Clb=-15.5m/s p=199.8hPa t=-56.7C h=6.3% 404.000MHz Type=RS41-SGP TxOff=8h18m rdzTTGOsonde
EA1JAY-16S42703942022-12-06 01:37:0643.3219-7.54352785911875Clb=-15.9m/s p=199.3hPa t=-56.8C h=6.2% 404.000MHz Type=RS41-SGP TxOff=8h18m rdzTTGOsonde
EB4FMT-14S42703942022-12-06 01:37:0043.3216-7.54501745212000Clb=-16.4m/s t=-57.2C h=5.8% p=195.4hPa 404.001 MHz Type=RS41-SGP ser=S4270394 Radiosonde auto_rx v1.5.9
EA1JAY-15S42703942022-12-06 01:36:4643.3211-7.54709715212192Clb=-16.0m/s p=189.5hPa t=-58.4C h=5.3% 404.000MHz Type=RS41-SGP TxOff=8h18m rdzTTGOsonde
EA1JAY-16S42703942022-12-06 01:36:4543.3211-7.54726705212208Clb=-16.1m/s p=189.0hPa t=-58.6C h=5.3% 404.000MHz Type=RS41-SGP TxOff=8h18m rdzTTGOsonde
EB4FMT-14S42703942022-12-06 01:36:3043.3202-7.55062767212476Clb=-15.2m/s t=-58.5C h=3.9% p=181.2hPa 404.001 MHz Type=RS41-SGP ser=S4270394 Radiosonde auto_rx v1.5.9
EA1JAY-15S42703942022-12-06 01:36:2543.3201-7.55138817612522Clb=-15.7m/s p=179.8hPa t=-58.1C h=3.6% 404.000MHz Type=RS41-SGP TxOff=8h19m rdzTTGOsonde
EA1JAY-16S42703942022-12-06 01:36:0443.32-7.55656945712878Clb=-18.2m/s p=170.0hPa t=-57.4C h=2.5% 404.000MHz Type=RS41-SGP TxOff=8h19m rdzTTGOsonde
EA1JAY-15S42703942022-12-06 01:36:0143.32-7.55713935612928Clb=-16.1m/s p=168.6hPa t=-57.1C h=2.5% 404.000MHz Type=RS41-SGP TxOff=8h19m rdzTTGOsonde
EB4FMT-14S42703942022-12-06 01:36:0043.3201-7.55769935212976Clb=-16.7m/s t=-56.8C h=2.3% p=167.4hPa 404.001 MHz Type=RS41-SGP ser=S4270394 Radiosonde auto_rx v1.5.9
EA1JAY-16S42703942022-12-06 01:35:4343.3202-7.56085966513217Clb=-17.5m/s p=161.2hPa t=-57.1C h=2.3% 404.000MHz Type=RS41-SGP TxOff=8h20m rdzTTGOsonde
EA1JAY-15S42703942022-12-06 01:35:4143.3202-7.5613976113250Clb=-15.8m/s p=160.3hPa t=-57.4C h=2.4% 404.000MHz Type=RS41-SGP TxOff=8h20m rdzTTGOsonde
EB4FMT-14S42703942022-12-06 01:35:3043.3204-7.56435967213461Clb=-15.0m/s t=-57.9C h=2.4% p=155.0hPa 404.001 MHz Type=RS41-SGP ser=S4270394 Radiosonde auto_rx v1.5.9
EA1JAY-16S42703942022-12-06 01:35:2243.3206-7.56584997013560Clb=-16.6m/s p=152.6hPa t=-58.0C h=2.4% 404.000MHz Type=RS41-SGP TxOff=8h20m rdzTTGOsonde
EA1JAY-15S42703942022-12-06 01:35:2143.3206-7.566081007013578Clb=-19.0m/s p=152.2hPa t=-57.9C h=2.4% 404.000MHz Type=RS41-SGP TxOff=8h20m rdzTTGOsonde
EA1JAY-16S42703942022-12-06 01:35:0143.3212-7.57058995713914Clb=-16.1m/s p=144.3hPa t=-57.3C h=2.3% 404.000MHz Type=RS41-SGP TxOff=8h20m rdzTTGOsonde
EA1JAY-15S42703942022-12-06 01:35:0043.3212-7.57078985713929Clb=-16.8m/s p=144.0hPa t=-57.4C h=2.3% 404.000MHz Type=RS41-SGP rdzTTGOsonde
EA1JAY-16S42703942022-12-06 01:34:4143.3214-7.57472986914249Clb=-18.4m/s p=136.9hPa t=-58.1C h=2.5% 404.000MHz Type=RS41-SGP TxOff=8h20m rdzTTGOsonde
EA1JAY-15S42703942022-12-06 01:34:4043.3215-7.57495976714267Clb=-18.5m/s p=136.5hPa t=-58.2C h=2.5% 404.000MHz Type=RS41-SGP rdzTTGOsonde
EB4FMT-14S42703942022-12-06 01:34:3043.3215-7.57772886514486Clb=-19.6m/s t=-59.0C h=2.5% p=131.9hPa 404.001 MHz Type=RS41-SGP ser=S4270394 Radiosonde auto_rx v1.5.9
EA1JAY-16S42703942022-12-06 01:34:2143.3215-7.57924965714613Clb=-18.4m/s p=129.1hPa t=-58.6C h=2.5% 404.000MHz Type=RS41-SGP TxOff=8h20m rdzTTGOsonde
EA1JAY-15S42703942022-12-06 01:34:1943.3215-7.57962965614651Clb=-19.0m/s p=128.4hPa t=-58.7C h=2.6% 404.000MHz Type=RS41-SGP rdzTTGOsonde
EA1JAY-16S42703942022-12-06 01:34:0043.3216-7.58266834315004Clb=-19.3m/s p=121.4hPa t=-59.9C h=2.8% 404.000MHz Type=RS41-SGP TxOff=8h21m rdzTTGOsonde
EA1JAY-15S42703942022-12-06 01:33:5643.3215-7.58324734315080Clb=-18.0m/s p=119.9hPa t=-59.6C h=2.7% 404.000MHz Type=RS41-SGP rdzTTGOsonde
EA1JAY-16S42703942022-12-06 01:33:4043.3208-7.58618746515390Clb=-19.8m/s p=114.1hPa t=-61.3C h=2.9% 404.000MHz Type=RS41-SGP TxOff=8h21m rdzTTGOsonde
EA1JAY-15S42703942022-12-06 01:33:3243.3205-7.58799817015546Clb=-20.0m/s p=111.3hPa t=-62.2C h=3.0% 404.000MHz Type=RS41-SGP rdzTTGOsonde
EB4FMT-14S42703942022-12-06 01:33:3043.3204-7.58916836515645Clb=-21.1m/s t=-62.3C h=2.9% p=109.5hPa 404.001 MHz Type=RS41-SGP ser=S4270394 Radiosonde auto_rx v1.5.9
EA1JAY-16S42703942022-12-06 01:33:1943.3203-7.59081935615810Clb=-19.9m/s p=106.6hPa t=-63.3C h=3.3% 404.000MHz Type=RS41-SGP TxOff=8h22m rdzTTGOsonde
EA1JAY-16S42703942022-12-06 01:32:5943.3205-7.5936802416204Clb=-20.1m/s p=100.0hPa t=-62.0C h=2.8% 404.000MHz Type=RS41-SGP TxOff=8h22m rdzTTGOsonde
EA1JAY-15S42703942022-12-06 01:32:5843.3205-7.59369772416224Clb=-19.5m/s p=99.7hPa t=-62.1C h=2.8% 404.000MHz Type=RS41-SGP rdzTTGOsonde
EA1JAY-16S42703942022-12-06 01:32:3843.3205-7.596141074816633Clb=-20.6m/s p=93.3hPa t=-62.9C h=2.8% 404.000MHz Type=RS41-SGP TxOff=8h22m rdzTTGOsonde
EB4FMT-14S42703942022-12-06 01:32:3043.3208-7.597351072816838Clb=-20.5m/s t=-62.5C h=2.7% p=90.2hPa 404.001 MHz Type=RS41-SGP ser=S4270394 Radiosonde auto_rx v1.5.9
EA1JAY-15S42703942022-12-06 01:32:2643.3208-7.597531032816879Clb=-21.0m/s p=89.6hPa t=-62.6C h=2.8% 404.000MHz Type=RS41-SGP rdzTTGOsonde
EA1JAY-16S42703942022-12-06 01:32:1843.3208-7.59826842817053Clb=-21.7m/s p=87.2hPa t=-62.9C h=2.8% 404.000MHz Type=RS41-SGP TxOff=8h23m rdzTTGOsonde
EA1JAY-15S42703942022-12-06 01:32:0443.3206-7.59957772417386Clb=-22.5m/s t=-60.5C 404.000MHz Type=RS41-SGP rdzTTGOsonde
EB4FMT-14S42703942022-12-06 01:32:0043.3205-7.59998702217496Clb=-20.8m/s t=-60.4C h=2.2% p=81.1hPa 404.001 MHz Type=RS41-SGP ser=S4270394 Radiosonde auto_rx v1.5.9
EA1JAY-16S42703942022-12-06 01:31:5743.3205-7.60005692417517Clb=-19.9m/s p=80.8hPa t=-60.5C h=2.2% 404.000MHz Type=RS41-SGP TxOff=8h23m rdzTTGOsonde
EA1JAY-15S42703942022-12-06 01:31:4343.3201-7.60151773917822Clb=-22.2m/s t=-61.2C 404.000MHz Type=RS41-SGP rdzTTGOsonde
EA1JAY-16S42703942022-12-06 01:31:3743.32-7.60221893317957Clb=-23.2m/s p=75.4hPa t=-61.5C h=2.2% 404.000MHz Type=RS41-SGP TxOff=8h24m rdzTTGOsonde
EB4FMT-14S42703942022-12-06 01:31:3043.3201-7.603131072618156Clb=-22.4m/s t=-61.9C h=2.3% p=73.0hPa 404.001 MHz Type=RS41-SGP ser=S4270394 Radiosonde auto_rx v1.5.9
EA1JAY-16S42703942022-12-06 01:31:1643.3203-7.60411032018423Clb=-22.5m/s p=69.9hPa t=-61.0C h=2.1% 404.000MHz Type=RS41-SGP TxOff=8h24m rdzTTGOsonde
EB4FMT-14S42703942022-12-06 01:31:0043.3204-7.605071062818850Clb=-25.3m/s t=-60.6C h=2.0% p=65.3hPa 404.001 MHz Type=RS41-SGP ser=S4270394 Radiosonde auto_rx v1.5.9
EA1JAY-16S42703942022-12-06 01:30:5643.3205-7.605261133018900Clb=-24.3m/s p=64.8hPa t=-60.3C h=2.0% 404.000MHz Type=RS41-SGP TxOff=8h24m rdzTTGOsonde
EA1JAY-16S42703942022-12-06 01:30:3643.3211-7.60568217919398Clb=-25.9m/s p=59.8hPa t=-60.8C h=2.0% 404.000MHz Type=RS41-SGP TxOff=8h25m rdzTTGOsonde
EA1JAY-16S42703942022-12-06 01:30:1543.3212-7.60601961119933Clb=-26.3m/s p=54.8hPa t=-61.3C h=1.9% 404.000MHz Type=RS41-SGP TxOff=8h25m rdzTTGOsonde
EA4EKH-11S42703942022-12-06 01:30:1043.3213-7.606311502220118Clb=-26.0m/s t=-61.8C h=2.0% p=53.2hPa 404.001 MHz Type=RS41-SGP ser=S4270394 Radiosonde
EB4FMT-14S42703942022-12-06 01:30:0043.3219-7.606491991520376Clb=-27.4m/s t=-62.2C h=1.9% p=51.0hPa 404.001 MHz Type=RS41-SGP ser=S4270394 Radiosonde auto_rx v1.5.9
EA1JAY-16S42703942022-12-06 01:29:5443.3221-7.606392131520484Clb=-26.8m/s p=50.2hPa t=-62.7C h=2.0% 404.000MHz Type=RS41-SGP TxOff=8h25m rdzTTGOsonde
EA4EKH-11S42703942022-12-06 01:29:3843.3222-7.60574275920946Clb=-27.6m/s t=-63.5C h=2.1% p=46.5hPa 404.001 MHz Type=RS41-SGP ser=S4270394 Radiosonde
EB4FMT-14S42703942022-12-06 01:29:3043.3222-7.6057368721196Clb=-27.9m/s t=-63.2C h=2.0% p=44.7hPa 404.001 MHz Type=RS41-SGP ser=S4270394 Radiosonde auto_rx v1.5.9
EA1JAY-16S42703942022-12-06 01:29:1343.3225-7.60611216621620Clb=-29.0m/s p=41.7hPa t=-63.4C h=2.1% 404.000MHz Type=RS41-SGP TxOff=8h25m rdzTTGOsonde
EA4EKH-11S42703942022-12-06 01:29:0743.3226-7.60601192621820Clb=-30.3m/s t=-63.5C h=2.2% p=40.4hPa 404.001 MHz Type=RS41-SGP ser=S4270394 Radiosonde
EA1JAY-15S42703942022-12-06 01:29:0543.3226-7.60601161621850Clb=-29.8m/s t=-63.5C 404.000MHz Type=RS41-SGP rdzTTGOsonde
EB4FMT-14S42703942022-12-06 01:29:0043.3226-7.60615115922057Clb=-27.6m/s t=-61.8C h=2.0% p=38.8hPa 404.001 MHz Type=RS41-SGP ser=S4270394 Radiosonde auto_rx v1.5.9
EA1JAY-16S42703942022-12-06 01:28:5243.3228-7.606221832222223Clb=-29.4m/s p=37.8hPa t=-60.6C h=1.8% 404.000MHz Type=RS41-SGP TxOff=8h26m rdzTTGOsonde
EA1JAY-15S42703942022-12-06 01:28:4443.3232-7.606042261522455Clb=-28.7m/s t=-60.1C 404.000MHz Type=RS41-SGP rdzTTGOsonde
EA4EKH-11S42703942022-12-06 01:28:3643.3235-7.605821862022753Clb=-30.0m/s t=-58.9C h=1.5% p=34.8hPa 404.001 MHz Type=RS41-SGP ser=S4270394 Radiosonde
EA1JAY-16S42703942022-12-06 01:28:3243.3236-7.605791912422813Clb=-30.0m/s p=34.4hPa t=-59.0C h=1.5% 404.000MHz Type=RS41-SGP TxOff=8h26m rdzTTGOsonde
EB4FMT-14S42703942022-12-06 01:28:3043.3239-7.605672082822933Clb=-30.9m/s t=-59.2C h=1.5% p=33.8hPa 404.001 MHz Type=RS41-SGP ser=S4270394 Radiosonde auto_rx v1.5.9
CT7AUS-11S42703942022-12-06 01:28:2943.3242-7.605322153723088Clb=-32.2m/s t=-59.4C h=1.5% p=33.0hPa 404.000 MHz Type=RS41-SGP ser=S4270394 Radiosonde
EA1JAY-16S42703942022-12-06 01:28:1143.3248-7.604552262023471Clb=-32.1m/s p=31.0hPa t=-59.8C h=1.6% 404.000MHz Type=RS41-SGP TxOff=8h27m rdzTTGOsonde
EA4EKH-11S42703942022-12-06 01:28:0543.3251-7.60431832223731Clb=-32.1m/s t=-60.1C h=1.5% p=29.7hPa 404.001 MHz Type=RS41-SGP ser=S4270394 Radiosonde
EB4FMT-14S42703942022-12-06 01:28:0043.3254-7.604321682023892Clb=-32.6m/s t=-60.0C h=1.5% p=29.0hPa 404.001 MHz Type=RS41-SGP ser=S4270394 Radiosonde auto_rx v1.5.9
CT7AUS-11S42703942022-12-06 01:27:5843.3254-7.604331611723924Clb=-33.3m/s t=-59.9C h=1.5% p=28.8hPa 404.000 MHz Type=RS41-SGP ser=S4270394 Radiosonde
EA1JAY-16S42703942022-12-06 01:27:5143.3257-7.604521582424124Clb=-33.3m/s p=27.9hPa t=-60.1C h=1.6% 404.000MHz Type=RS41-SGP TxOff=8h27m rdzTTGOsonde
EA4EKH-11S42703942022-12-06 01:27:3443.3267-7.605061212424733Clb=-31.1m/s t=-60.0C h=1.6% p=25.3hPa 404.001 MHz Type=RS41-SGP ser=S4270394 Radiosonde
EA1JAY-16S42703942022-12-06 01:27:3043.3268-7.60521082624798Clb=-33.2m/s p=25.0hPa t=-60.0C h=1.6% 404.000MHz Type=RS41-SGP TxOff=8h27m rdzTTGOsonde
CT7AUS-11S42703942022-12-06 01:27:2743.3268-7.605521082024929Clb=-33.6m/s t=-59.9C h=1.6% p=24.5hPa 404.000 MHz Type=RS41-SGP ser=S4270394 Radiosonde
EA1JAY-16S42703942022-12-06 01:27:1043.3274-7.606081103025478Clb=-34.6m/s p=22.4hPa t=-59.6C h=1.5% 404.000MHz Type=RS41-SGP TxOff=8h28m rdzTTGOsonde
EA4EKH-11S42703942022-12-06 01:27:0343.3278-7.606781582425793Clb=-36.0m/s t=-59.5C h=1.5% p=21.3hPa 404.001 MHz Type=RS41-SGP ser=S4270394 Radiosonde
EB4FMT-14S42703942022-12-06 01:27:0043.3279-7.606861582625902Clb=-39.5m/s t=-60.0C h=1.5% p=21.0hPa 404.001 MHz Type=RS41-SGP ser=S4270394 Radiosonde auto_rx v1.5.9
CT7AUS-11S42703942022-12-06 01:26:5643.3281-7.6071473326018Clb=-40.5m/s t=-60.4C h=1.6% p=20.6hPa 404.000 MHz Type=RS41-SGP ser=S4270394 Radiosonde
EA1JAY-16S42703942022-12-06 01:26:5043.3285-7.60751304626216Clb=-40.0m/s p=20.0hPa t=-60.0C h=1.6% 404.000MHz Type=RS41-SGP TxOff=8h28m rdzTTGOsonde
EA4EKH-11S42703942022-12-06 01:26:3243.3298-7.609261272227038Clb=-40.4m/s t=-60.9C h=1.7% p=17.4hPa 404.001 MHz Type=RS41-SGP ser=S4270394 Radiosonde
EA1JAY-16S42703942022-12-06 01:26:2943.3299-7.609331282427078Clb=-41.7m/s p=17.3hPa t=-60.7C h=1.8% 404.000MHz Type=RS41-SGP TxOff=8h29m rdzTTGOsonde
CT7AUS-11S42703942022-12-06 01:26:2543.3301-7.609661282627285Clb=-44.6m/s t=-59.7C h=1.5% p=16.8hPa 404.000 MHz Type=RS41-SGP ser=S4270394 Radiosonde
EA1JAY-16S42703942022-12-06 01:26:0843.3309-7.611271443927986Clb=-43.5m/s p=15.0hPa t=-58.6C h=1.5% 404.000MHz Type=RS41-SGP TxOff=8h29m rdzTTGOsonde
EA4EKH-11S42703942022-12-06 01:26:0143.3311-7.61216903728388Clb=-43.2m/s t=-58.5C h=1.5% p=14.0hPa 404.001 MHz Type=RS41-SGP ser=S4270394 Radiosonde
CT7AUS-11S42703942022-12-06 01:25:5443.3312-7.612941062628700Clb=-45.5m/s t=-58.9C h=1.5% p=13.3hPa 404.000 MHz Type=RS41-SGP ser=S4270394 Radiosonde
EA1JAY-16S42703942022-12-06 01:25:4843.3312-7.61332883328882Clb=-44.6m/s p=13.0hPa t=-59.3C h=1.6% 404.000MHz Type=RS41-SGP TxOff=8h29m rdzTTGOsonde
EB4FMT-14S42703942022-12-06 01:25:3043.3316-7.616811325729801Clb=-49.2m/s t=-59.1C h=1.7% p=11.2hPa 404.001 MHz Type=RS41-SGP ser=S4270394 Radiosonde auto_rx v1.5.9
EA1JAY-16S42703942022-12-06 01:25:2743.3317-7.616951365629850Clb=-48.9m/s p=11.1hPa t=-58.9C h=1.7% 404.000MHz Type=RS41-SGP rdzTTGOsonde
CT7AUS-11S42703942022-12-06 01:25:2343.3322-7.617471413930087Clb=-47.5m/s t=-57.2C h=1.5% p=10.7hPa 404.000 MHz Type=RS41-SGP ser=S4270394 Radiosonde
EA1JAY-15S42703942022-12-06 01:25:2143.3322-7.617551413530135Clb=-48.7m/s t=-57.1C 404.000MHz Type=RS41-SGP rdzTTGOsonde
EA1JAY-16S42703942022-12-06 01:25:0643.3332-7.619381225730881Clb=-51.7m/s p=9.4hPa t=-55.7C h=1.4% 404.000MHz Type=RS41-SGP rdzTTGOsonde
EA1JAY-15S42703942022-12-06 01:25:0043.3336-7.620551086931177Clb=-50.7m/s t=-54.8C 404.000MHz Type=RS41-SGP rdzTTGOsonde
EA4EKH-11S42703942022-12-06 01:24:5943.3338-7.621291148031328Clb=-50.3m/s t=-54.3C h=1.2% p=8.8hPa 404.001 MHz Type=RS41-SGP ser=S4270394 Radiosonde
EA1JAY-16S42703942022-12-06 01:24:4643.3345-7.624341019131814Clb=-36.5m/s p=8.0hPa t=-53.3C h=1.1% 404.000MHz Type=RS41-SGP rdzTTGOsonde
EA1JAY-15S42703942022-12-06 01:24:3443.335-7.62834948732080Clb=4.1m/s t=-54.3C 404.000MHz Type=RS41-SGP rdzTTGOsonde
EA4EKH-11S42703942022-12-06 01:24:2843.3352-7.63033998732043Clb=5.4m/s t=-54.3C h=1.2% p=7.7hPa 404.001 MHz Type=RS41-SGP ser=S4270394 Radiosonde
EA1JAY-16S42703942022-12-06 01:24:2543.3352-7.63063989132038Clb=5.0m/s p=7.7hPa t=-54.3C h=1.2% 404.000MHz Type=RS41-SGP rdzTTGOsonde
CT7AUS-11S42703942022-12-06 01:24:2143.3354-7.63244948332007Clb=4.8m/s t=-54.3C h=1.2% p=7.7hPa 404.000 MHz Type=RS41-SGP ser=S4270394 Radiosonde
EA1JAY-16S42703942022-12-06 01:24:0543.3358-7.63668989131936Clb=5.7m/s p=7.8hPa t=-54.0C h=1.2% 404.000MHz Type=RS41-SGP rdzTTGOsonde
EA4EKH-11S42703942022-12-06 01:23:5643.3362-7.639651119631887Clb=4.7m/s t=-53.8C h=1.2% p=7.9hPa 404.001 MHz Type=RS41-SGP ser=S4270394 Radiosonde
EA1JAY-15S42703942022-12-06 01:23:5243.3364-7.64059989431871Clb=5.2m/s t=-53.7C 404.000MHz Type=RS41-SGP rdzTTGOsonde
EA1JAY-16S42703942022-12-06 01:23:4443.3368-7.642911149431832Clb=4.6m/s p=7.9hPa t=-53.4C h=1.2% 404.000MHz Type=RS41-SGP rdzTTGOsonde
EA1JAY-15S42703942022-12-06 01:23:3143.3376-7.646661108531766Clb=5.0m/s t=-53.0C 404.000MHz Type=RS41-SGP rdzTTGOsonde
EA4EKH-11S42703942022-12-06 01:23:2543.3383-7.648711158931731Clb=4.2m/s t=-53.1C h=1.1% p=8.1hPa 404.001 MHz Type=RS41-SGP ser=S4270394 Radiosonde
EA1JAY-16S42703942022-12-06 01:23:2443.3383-7.648711178931731Clb=4.2m/s p=8.1hPa t=-53.1C h=1.1% 404.000MHz Type=RS41-SGP rdzTTGOsonde
CT7AUS-11S42703942022-12-06 01:23:1943.3393-7.6518712210731672Clb=4.2m/s t=-53.8C h=1.2% p=8.1hPa 404.000 MHz Type=RS41-SGP ser=S4270394 Radiosonde
EA1JAY-15S42703942022-12-06 01:23:0743.3397-7.653411078031648Clb=5.0m/s t=-53.6C 404.000MHz Type=RS41-SGP rdzTTGOsonde
EA1JAY-16S42703942022-12-06 01:23:0343.34-7.654271266531625Clb=5.2m/s p=8.2hPa t=-53.5C h=1.2% 404.000MHz Type=RS41-SGP rdzTTGOsonde
EB4FMT-14S42703942022-12-06 01:23:0043.3405-7.655651068931595Clb=5.5m/s t=-53.3C h=1.1% p=8.2hPa 404.001 MHz Type=RS41-SGP ser=S4270394 Radiosonde auto_rx v1.5.9
EA4EKH-11S42703942022-12-06 01:22:5443.3408-7.656821098331577Clb=4.8m/s t=-53.2C h=1.1% p=8.2hPa 404.001 MHz Type=RS41-SGP ser=S4270394 Radiosonde
CT7AUS-11S42703942022-12-06 01:22:4843.3413-7.658511017831543Clb=5.4m/s t=-53.2C h=1.1% p=8.3hPa 404.000 MHz Type=RS41-SGP ser=S4270394 Radiosonde
EA1JAY-15S42703942022-12-06 01:22:4543.3414-7.65879998331539Clb=4.7m/s t=-53.2C 404.000MHz Type=RS41-SGP rdzTTGOsonde
EA1JAY-16S42703942022-12-06 01:22:4243.3414-7.659621028131525Clb=5.3m/s p=8.3hPa t=-53.2C h=1.1% 404.000MHz Type=RS41-SGP rdzTTGOsonde
EB4FMT-14S42703942022-12-06 01:22:3043.3421-7.663241016531458Clb=4.6m/s t=-53.9C h=1.1% p=8.4hPa 404.001 MHz Type=RS41-SGP ser=S4270394 Radiosonde auto_rx v1.5.9
EA1JAY-15S42703942022-12-06 01:22:2543.3422-7.663881016331445Clb=4.6m/s t=-54.3C 404.000MHz Type=RS41-SGP rdzTTGOsonde
EA4EKH-11S42703942022-12-06 01:22:2343.3423-7.66457907231430Clb=4.5m/s t=-54.7C h=1.2% p=8.4hPa 404.001 MHz Type=RS41-SGP ser=S4270394 Radiosonde
EA1JAY-16S42703942022-12-06 01:22:2143.3422-7.66482917431426Clb=3.9m/s p=8.4hPa t=-54.7C h=1.2% 404.000MHz Type=RS41-SGP rdzTTGOsonde
CT7AUS-11S42703942022-12-06 01:22:1743.3423-7.66616965431398Clb=4.1m/s t=-55.0C h=1.2% p=8.5hPa 404.000 MHz Type=RS41-SGP ser=S4270394 Radiosonde
EA1JAY-15S42703942022-12-06 01:22:0243.3425-7.668661136331340Clb=4.8m/s t=-55.0C 404.000MHz Type=RS41-SGP rdzTTGOsonde
EA1JAY-16S42703942022-12-06 01:22:0043.3426-7.669071056131331Clb=4.0m/s p=8.6hPa t=-55.0C h=1.2% 404.000MHz Type=RS41-SGP rdzTTGOsonde
EA4EKH-11S42703942022-12-06 01:21:5243.3429-7.671021118031285Clb=4.6m/s t=-55.0C h=1.2% p=8.7hPa 404.001 MHz Type=RS41-SGP ser=S4270394 Radiosonde
CT7AUS-11S42703942022-12-06 01:21:4643.3434-7.672241194431258Clb=3.9m/s t=-55.1C h=1.1% p=8.7hPa 404.000 MHz Type=RS41-SGP ser=S4270394 Radiosonde
EA1JAY-15S42703942022-12-06 01:21:4243.3435-7.672691055631248Clb=4.8m/s t=-55.2C 404.000MHz Type=RS41-SGP rdzTTGOsonde
EA1JAY-16S42703942022-12-06 01:21:4043.3435-7.672891046731243Clb=5.2m/s p=8.7hPa t=-55.3C h=1.2% 404.000MHz Type=RS41-SGP rdzTTGOsonde
EB4FMT-14S42703942022-12-06 01:21:3043.3447-7.676171149331178Clb=4.7m/s t=-55.7C h=1.2% p=8.8hPa 404.001 MHz Type=RS41-SGP ser=S4270394 Radiosonde auto_rx v1.5.9
EA4EKH-11S42703942022-12-06 01:21:2143.3452-7.677461216331158Clb=5.1m/s t=-55.8C h=1.2% p=8.8hPa 404.001 MHz Type=RS41-SGP ser=S4270394 Radiosonde
EA1JAY-16S42703942022-12-06 01:21:1943.3453-7.677631235431154Clb=5.4m/s p=8.8hPa t=-55.8C h=1.3% 404.000MHz Type=RS41-SGP rdzTTGOsonde
EA1JAY-15S42703942022-12-06 01:21:1743.3455-7.678031254631139Clb=4.2m/s t=-56.0C 404.000MHz Type=RS41-SGP rdzTTGOsonde
CT7AUS-11S42703942022-12-06 01:21:1543.3457-7.678511266731126Clb=4.7m/s t=-56.1C h=1.2% p=8.9hPa 404.000 MHz Type=RS41-SGP ser=S4270394 Radiosonde
EA1JAY-16S42703942022-12-06 01:20:5943.3467-7.681121255631062Clb=4.6m/s p=9.0hPa t=-56.6C h=1.4% 404.000MHz Type=RS41-SGP rdzTTGOsonde
EA1JAY-15S42703942022-12-06 01:20:5443.347-7.681851144631038Clb=4.6m/s t=-56.7C 404.000MHz Type=RS41 rdzTTGOsonde
EA4EKH-11S42703942022-12-06 01:20:5043.3474-7.682791195431009Clb=5.2m/s t=-56.6C h=1.3% p=9.1hPa 404.001 MHz Type=RS41-SGP ser=S4270394 Radiosonde
CT7AUS-11S42703942022-12-06 01:20:4643.3479-7.683811256330981Clb=4.7m/s t=-56.6C h=1.2% p=9.1hPa 404.000 MHz Type=RS41-SGP ser=S4270394 Radiosonde
EA1JAY-16S42703942022-12-06 01:20:3943.3481-7.684331175430968Clb=5.4m/s p=9.1hPa t=-56.6C h=1.3% 404.000MHz Type=RS41-SGP rdzTTGOsonde
EA1JAY-15S42703942022-12-06 01:20:2943.3487-7.68631145930913Clb=5.1m/s t=-56.6C 404.000MHz Type=RS41 rdzTTGOsonde
EA1JAY-16S42703942022-12-06 01:20:1843.3492-7.688161136130867Clb=5.2m/s p=9.2hPa t=-56.6C h=1.3% 404.000MHz Type=RS41-SGP rdzTTGOsonde
CT7AUS-11S42703942022-12-06 01:20:1243.3495-7.689291234830832Clb=4.8m/s t=-56.8C h=1.2% p=9.3hPa 404.000 MHz Type=RS41-SGP ser=S4270394 Radiosonde
EA1JAY-16S42703942022-12-06 01:19:5743.3502-7.691361204430765Clb=5.3m/s p=9.4hPa t=-57.9C h=1.4% 404.000MHz Type=RS41-SGP rdzTTGOsonde
EA4EKH-11S42703942022-12-06 01:19:4843.3509-7.692271183030712Clb=4.6m/s t=-57.6C h=1.3% p=9.5hPa 404.001 MHz Type=RS41-SGP ser=S4270394 Radiosonde
CT7AUS-11S42703942022-12-06 01:19:4343.3512-7.693041264830683Clb=4.3m/s t=-57.6C h=1.3% p=9.5hPa 404.000 MHz Type=RS41-SGP ser=S4270394 Radiosonde
EA1JAY-16S42703942022-12-06 01:19:3643.3514-7.693451353130662Clb=4.6m/s p=9.6hPa t=-57.7C h=1.4% 404.000MHz Type=RS41-SGP rdzTTGOsonde
EB4FMT-14S42703942022-12-06 01:19:3043.3519-7.694361064430623Clb=5.8m/s t=-57.6C h=1.4% p=9.6hPa 404.001 MHz Type=RS41-SGP ser=S4270394 Radiosonde auto_rx v1.5.9
EA1JAY-16S42703942022-12-06 01:19:1743.3524-7.69581113930562Clb=4.4m/s p=9.7hPa t=-57.5C h=1.4% 404.000MHz Type=RS41-SGP rdzTTGOsonde
CT7AUS-11S42703942022-12-06 01:19:1143.3527-7.69671233130526Clb=5.5m/s t=-57.6C h=1.3% p=9.8hPa 404.000 MHz Type=RS41-SGP ser=S4270394 Radiosonde
EB4FMT-14S42703942022-12-06 01:19:0043.3534-7.697861193730466Clb=4.3m/s t=-57.5C h=1.3% p=9.9hPa 404.001 MHz Type=RS41-SGP ser=S4270394 Radiosonde auto_rx v1.5.9
EA1JAY-16S42703942022-12-06 01:18:5643.3534-7.697971263930461Clb=5.5m/s p=9.9hPa t=-57.5C h=1.3% 404.000MHz Type=RS41-SGP rdzTTGOsonde
EA4EKH-11S42703942022-12-06 01:18:4643.3541-7.699011245030400Clb=4.2m/s t=-57.8C h=1.3% p=10.0hPa 404.001 MHz Type=RS41-SGP ser=S4270394 Radiosonde
CT7AUS-11S42703942022-12-06 01:18:3943.3545-7.699621572430366Clb=4.7m/s t=-58.2C h=1.3% p=10.1hPa 404.000 MHz Type=RS41-SGP ser=S4270394 Radiosonde
EA1JAY-16S42703942022-12-06 01:18:3543.3547-7.699691583530357Clb=5.1m/s t=-58.4C 404.000MHz Type=RS41 rdzTTGOsonde
EB4FMT-14S42703942022-12-06 01:18:3043.3552-7.700281353130322Clb=4.2m/s t=-58.7C h=1.5% p=10.1hPa 404.001 MHz Type=RS41-SGP ser=S4270394 Radiosonde auto_rx v1.5.9
EA1JAY-16S42703942022-12-06 01:18:1543.3565-7.701211484630255Clb=5.5m/s t=-58.2C 404.000MHz Type=RS41 rdzTTGOsonde
CT7AUS-11S42703942022-12-06 01:18:0943.3573-7.701861463930220Clb=4.7m/s t=-57.9C h=1.4% p=10.3hPa 404.000 MHz Type=RS41-SGP ser=S4270394 Radiosonde
EB4FMT-14S42703942022-12-06 01:18:0243.3582-7.702791465030176Clb=5.6m/s t=-57.6C h=1.3% p=10.4hPa 404.001 MHz Type=RS41-SGP ser=S4270394 Radiosonde auto_rx v1.5.9
EA1JAY-16S42703942022-12-06 01:17:5643.3586-7.703271334830151Clb=5.1m/s 404.000MHz Type=RS41 rdzTTGOsonde
EA4EKH-11S42703942022-12-06 01:17:4643.3597-7.704651367030097Clb=4.8m/s t=-57.7C h=1.3% p=10.5hPa 404.001 MHz Type=RS41-SGP ser=S4270394 Radiosonde
CT7AUS-11S42703942022-12-06 01:17:4043.3604-7.705461374330069Clb=4.2m/s t=-57.8C h=1.3% p=10.6hPa 404.000 MHz Type=RS41-SGP ser=S4270394 Radiosonde
EB4FMT-14S42703942022-12-06 01:17:3143.361-7.706711336730029Clb=5.3m/s t=-58.5C h=1.3% p=10.6hPa 404.001 MHz Type=RS41-SGP ser=S4270394 Radiosonde auto_rx v1.5.9
EA4EKH-11S42703942022-12-06 01:17:1343.3627-7.70961237029944Clb=5.4m/s t=-59.1C h=1.4% p=10.8hPa 404.001 MHz Type=RS41-SGP ser=S4270394 Radiosonde
CT7AUS-11S42703942022-12-06 01:17:0743.3631-7.710991136729908Clb=4.8m/s t=-59.3C h=1.4% p=10.8hPa 404.000 MHz Type=RS41-SGP ser=S4270394 Radiosonde
EB4FMT-14S42703942022-12-06 01:17:0043.3637-7.712151257229878Clb=4.1m/s t=-59.4C h=1.4% p=10.9hPa 404.001 MHz Type=RS41-SGP ser=S4270394 Radiosonde auto_rx v1.5.9
EA4EKH-11S42703942022-12-06 01:16:4243.3652-7.716421116129780Clb=5.0m/s t=-59.8C h=1.5% p=11.1hPa 404.001 MHz Type=RS41-SGP ser=S4270394 Radiosonde
CT7AUS-11S42703942022-12-06 01:16:3543.3656-7.717691177229749Clb=5.3m/s t=-60.2C h=1.5% p=11.1hPa 404.000 MHz Type=RS41-SGP ser=S4270394 Radiosonde
EB4FMT-14S42703942022-12-06 01:16:3043.3661-7.718771187429723Clb=4.4m/s t=-60.1C h=1.5% p=11.2hPa 404.001 MHz Type=RS41-SGP ser=S4270394 Radiosonde auto_rx v1.5.9
EA4EKH-11S42703942022-12-06 01:16:1143.3671-7.723331056529626Clb=4.9m/s t=-60.6C h=1.5% p=11.3hPa 404.001 MHz Type=RS41-SGP ser=S4270394 Radiosonde
CT7AUS-11S42703942022-12-06 01:16:0543.3674-7.72479956329590Clb=5.9m/s t=-60.8C h=1.6% p=11.4hPa 404.000 MHz Type=RS41-SGP ser=S4270394 Radiosonde
EB4FMT-14S42703942022-12-06 01:16:0043.3674-7.72563966129568Clb=5.2m/s t=-60.7C h=1.6% p=11.4hPa 404.001 MHz Type=RS41-SGP ser=S4270394 Radiosonde auto_rx v1.5.9
EA4EKH-11S42703942022-12-06 01:15:4143.3676-7.7296955229469Clb=5.3m/s t=-60.2C h=1.6% p=11.6hPa 404.001 MHz Type=RS41-SGP ser=S4270394 Radiosonde
CT7AUS-11S42703942022-12-06 01:15:3643.3675-7.73093766529435Clb=4.8m/s t=-60.0C h=1.5% p=11.7hPa 404.000 MHz Type=RS41-SGP ser=S4270394 Radiosonde
EB4FMT-14S42703942022-12-06 01:15:3243.3674-7.73158846129421Clb=4.3m/s t=-60.0C h=1.6% p=11.7hPa 404.001 MHz Type=RS41-SGP ser=S4270394 Radiosonde auto_rx v1.5.9
EA4EKH-11S42703942022-12-06 01:15:1243.367-7.73556784429323Clb=5.2m/s t=-59.6C h=1.5% p=11.9hPa 404.001 MHz Type=RS41-SGP ser=S4270394 Radiosonde
CT7AUS-11S42703942022-12-06 01:15:0643.3667-7.73684835929292Clb=2.7m/s t=-59.5C h=1.5% p=12.0hPa 404.000 MHz Type=RS41-SGP ser=S4270394 Radiosonde
EB4FMT-14S42703942022-12-06 01:15:0443.3667-7.73721834829285Clb=4.9m/s t=-59.4C h=1.5% p=12.0hPa 404.001 MHz Type=RS41-SGP ser=S4270394 Radiosonde auto_rx v1.5.9
EA4EKH-11S42703942022-12-06 01:14:4243.3659-7.7406893729187Clb=3.2m/s t=-59.1C h=1.5% p=12.2hPa 404.001 MHz Type=RS41-SGP ser=S4270394 Radiosonde
EB4FMT-14S42703942022-12-06 01:14:3443.3655-7.74179663929151Clb=4.3m/s t=-59.0C h=1.4% p=12.3hPa 404.001 MHz Type=RS41-SGP ser=S4270394 Radiosonde auto_rx v1.5.9
EA4EKH-11S42703942022-12-06 01:14:1243.3649-7.74425881529047Clb=4.6m/s t=-59.8C h=1.5% p=12.5hPa 404.001 MHz Type=RS41-SGP ser=S4270394 Radiosonde
EB4FMT-14S42703942022-12-06 01:14:0543.3649-7.7449593129016Clb=4.6m/s t=-59.9C h=1.5% p=12.5hPa 404.001 MHz Type=RS41-SGP ser=S4270394 Radiosonde auto_rx v1.5.9
EA4EKH-11S42703942022-12-06 01:13:4143.3651-7.746581272628901Clb=5.0m/s t=-59.8C h=1.5% p=12.7hPa 404.001 MHz Type=RS41-SGP ser=S4270394 Radiosonde
EB4FMT-14S42703942022-12-06 01:13:3643.3653-7.746971303328877Clb=5.2m/s t=-59.7C h=1.5% p=12.8hPa 404.001 MHz Type=RS41-SGP ser=S4270394 Radiosonde auto_rx v1.5.9
EA4EKH-11S42703942022-12-06 01:13:1043.3659-7.749161082828758Clb=5.5m/s t=-59.5C h=1.5% p=13.1hPa 404.001 MHz Type=RS41-SGP ser=S4270394 Radiosonde
EB4FMT-14S42703942022-12-06 01:13:0543.366-7.74961113528739Clb=4.9m/s t=-59.4C h=1.5% p=13.1hPa 404.001 MHz Type=RS41-SGP ser=S4270394 Radiosonde auto_rx v1.5.9
EA4EKH-11S42703942022-12-06 01:12:3943.3661-7.75258903128609Clb=5.0m/s t=-59.1C h=1.4% p=13.4hPa 404.001 MHz Type=RS41-SGP ser=S4270394 Radiosonde
EB4FMT-14S42703942022-12-06 01:12:3543.3661-7.75292933728596Clb=4.5m/s t=-59.1C h=1.4% p=13.4hPa 404.001 MHz Type=RS41-SGP ser=S4270394 Radiosonde auto_rx v1.5.9
CT7AUS-11S42703942022-12-06 01:12:3143.3662-7.75336974628581Clb=4.3m/s t=-59.0C h=1.4% p=13.4hPa 404.000 MHz Type=RS41-SGP ser=S4270394 Radiosonde
EA4EKH-11S42703942022-12-06 01:12:0743.3661-7.756371023128460Clb=4.2m/s t=-58.7C h=1.4% p=13.7hPa 404.001 MHz Type=RS41-SGP ser=S4270394 Radiosonde
EB4FMT-14S42703942022-12-06 01:12:0443.3661-7.756481033128455Clb=4.7m/s t=-58.7C h=1.4% p=13.7hPa 404.001 MHz Type=RS41-SGP ser=S4270394 Radiosonde auto_rx v1.5.9
CT7AUS-11S42703942022-12-06 01:11:5943.3662-7.75687902628437Clb=4.0m/s t=-58.9C h=1.4% p=13.7hPa 404.000 MHz Type=RS41-SGP ser=S4270394 Radiosonde
EA4EKH-11S42703942022-12-06 01:11:3543.3666-7.758871562028324Clb=4.7m/s t=-58.6C h=1.4% p=14.0hPa 404.001 MHz Type=RS41-SGP ser=S4270394 Radiosonde
CT7AUS-11S42703942022-12-06 01:11:2943.367-7.759531103028279Clb=2.9m/s t=-58.4C h=1.4% p=14.1hPa 404.000 MHz Type=RS41-SGP ser=S4270394 Radiosonde
EB4FMT-14S42703942022-12-06 01:11:0443.3684-7.760761674128185Clb=5.0m/s t=-58.4C h=1.4% p=14.3hPa 404.001 MHz Type=RS41-SGP ser=S4270394 Radiosonde auto_rx v1.5.9
EA4EKH-11S42703942022-12-06 01:11:0343.3684-7.760761674128185Clb=5.0m/s t=-58.4C h=1.4% p=14.3hPa 404.001 MHz Type=RS41-SGP ser=S4270394 Radiosonde
CT7AUS-11S42703942022-12-06 01:10:5743.3699-7.762031263528101Clb=4.4m/s t=-58.6C h=1.4% p=14.5hPa 404.000 MHz Type=RS41-SGP ser=S4270394 Radiosonde
EB4FMT-14S42703942022-12-06 01:10:3343.3707-7.763081453328046Clb=3.9m/s t=-58.6C h=1.3% p=14.6hPa 404.001 MHz Type=RS41-SGP ser=S4270394 Radiosonde auto_rx v1.5.9
EA4EKH-11S42703942022-12-06 01:10:3243.3708-7.763151383328042Clb=3.4m/s t=-58.6C h=1.3% p=14.7hPa 404.001 MHz Type=RS41-SGP ser=S4270394 Radiosonde
EB4FMT-14S42703942022-12-06 01:10:0443.373-7.766421263727910Clb=4.7m/s t=-60.5C h=1.4% p=15.0hPa 404.001 MHz Type=RS41-SGP ser=S4270394 Radiosonde auto_rx v1.5.9
EA4EKH-11S42703942022-12-06 01:10:0143.3731-7.766671255427900Clb=4.5m/s t=-60.6C h=1.5% p=15.0hPa 404.001 MHz Type=RS41-SGP ser=S4270394 Radiosonde
EB4FMT-14S42703942022-12-06 01:09:3443.3744-7.769341042627776Clb=3.9m/s t=-61.2C h=1.6% p=15.3hPa 404.001 MHz Type=RS41-SGP ser=S4270394 Radiosonde auto_rx v1.5.9
EA4EKH-11S42703942022-12-06 01:09:3143.3745-7.769591282827761Clb=4.7m/s t=-61.2C h=1.6% p=15.3hPa 404.001 MHz Type=RS41-SGP ser=S4270394 Radiosonde
CT7AUS-11S42703942022-12-06 01:09:2543.3747-7.77024831727726Clb=4.5m/s t=-61.2C h=1.5% p=15.4hPa 404.000 MHz Type=RS41-SGP ser=S4270394 Radiosonde
EB4FMT-14S42703942022-12-06 01:09:0443.3756-7.771841393127645Clb=4.1m/s t=-61.9C h=1.7% p=15.6hPa 404.001 MHz Type=RS41-SGP ser=S4270394 Radiosonde auto_rx v1.5.9
EA4EKH-11S42703942022-12-06 01:08:5943.3759-7.77221304327628Clb=4.1m/s t=-61.9C h=1.7% p=15.7hPa 404.001 MHz Type=RS41-SGP ser=S4270394 Radiosonde
CT7AUS-11S42703942022-12-06 01:08:5443.3762-7.772721402027598Clb=4.9m/s t=-61.7C h=1.6% p=15.7hPa 404.000 MHz Type=RS41-SGP ser=S4270394 Radiosonde
EB4FMT-14S42703942022-12-06 01:08:3143.3769-7.773751612427512Clb=4.3m/s t=-61.3C h=1.6% p=16.0hPa 404.001 MHz Type=RS41-SGP ser=S4270394 Radiosonde auto_rx v1.5.9
EA4EKH-11S42703942022-12-06 01:08:2643.3772-7.77391041327490Clb=4.1m/s t=-61.4C h=1.6% p=16.0hPa 404.001 MHz Type=RS41-SGP ser=S4270394 Radiosonde
CT7AUS-11S42703942022-12-06 01:08:2043.3772-7.774291641527457Clb=4.2m/s t=-61.4C h=1.6% p=16.1hPa 404.000 MHz Type=RS41-SGP ser=S4270394 Radiosonde
EB4FMT-14S42703942022-12-06 01:08:0043.3779-7.775021782827374Clb=4.6m/s t=-61.5C h=1.6% p=16.3hPa 404.001 MHz Type=RS41-SGP ser=S4270394 Radiosonde auto_rx v1.5.9
EA4EKH-11S42703942022-12-06 01:07:5343.3782-7.775221052427348Clb=4.1m/s t=-61.5C h=1.6% p=16.4hPa 404.001 MHz Type=RS41-SGP ser=S4270394 Radiosonde
CT7AUS-11S42703942022-12-06 01:07:4743.3783-7.77551671927318Clb=5.5m/s t=-61.5C h=1.6% p=16.5hPa 404.000 MHz Type=RS41-SGP ser=S4270394 Radiosonde
EB4FMT-14S42703942022-12-06 01:07:3043.3792-7.776261613027239Clb=4.7m/s t=-62.3C h=1.6% p=16.7hPa 404.001 MHz Type=RS41-SGP ser=S4270394 Radiosonde auto_rx v1.5.9
EA4EKH-11S42703942022-12-06 01:07:2343.3797-7.776681442827206Clb=4.4m/s t=-62.3C h=1.7% p=16.8hPa 404.001 MHz Type=RS41-SGP ser=S4270394 Radiosonde
CT7AUS-11S42703942022-12-06 01:07:1643.3801-7.777091592627173Clb=5.4m/s t=-62.4C h=1.7% p=16.9hPa 404.000 MHz Type=RS41-SGP ser=S4270394 Radiosonde
EB4FMT-14S42703942022-12-06 01:07:0043.3811-7.777921502027097Clb=5.2m/s t=-62.6C h=1.7% p=17.1hPa 404.001 MHz Type=RS41-SGP ser=S4270394 Radiosonde auto_rx v1.5.9
EA4EKH-11S42703942022-12-06 01:06:5143.3816-7.778281612827054Clb=4.8m/s t=-62.5C h=1.7% p=17.2hPa 404.001 MHz Type=RS41-SGP ser=S4270394 Radiosonde
CT7AUS-11S42703942022-12-06 01:06:4543.3819-7.77851492027024Clb=5.5m/s t=-62.4C h=1.7% p=17.3hPa 404.000 MHz Type=RS41-SGP ser=S4270394 Radiosonde
EB4FMT-14S42703942022-12-06 01:06:4343.3828-7.779391362826950Clb=4.9m/s t=-62.1C h=1.7% p=17.5hPa 404.001 MHz Type=RS41-SGP ser=S4270394 Radiosonde auto_rx v1.5.9
EA4EKH-11S42703942022-12-06 01:06:4243.3834-7.780231343026901Clb=5.7m/s t=-62.1C h=1.6% p=17.7hPa 404.001 MHz Type=RS41-SGP ser=S4270394 Radiosonde
EB4FMT-14S42703942022-12-06 01:06:4143.3845-7.781671362426803Clb=4.3m/s t=-62.1C h=1.7% p=17.9hPa 404.001 MHz Type=RS41-SGP ser=S4270394 Radiosonde auto_rx v1.5.9
EB4FMT-14S42703942022-12-06 01:06:3843.3864-7.783851343726656Clb=5.0m/s t=-62.1C h=1.7% p=18.4hPa 404.001 MHz Type=RS41-SGP ser=S4270394 Radiosonde auto_rx v1.5.9
EA4EKH-11S42703942022-12-06 01:06:3443.3872-7.78511353926597Clb=4.0m/s t=-61.8C h=1.6% p=18.6hPa 404.001 MHz Type=RS41-SGP ser=S4270394 Radiosonde
CT7AUS-11S42703942022-12-06 01:06:2943.3875-7.785711133326569Clb=4.0m/s t=-61.8C h=1.7% p=18.6hPa 404.000 MHz Type=RS41-SGP ser=S4270394 Radiosonde
EB4FMT-14S42703942022-12-06 01:06:2043.3881-7.787061174126514Clb=4.0m/s t=-62.0C h=1.7% p=18.8hPa 404.001 MHz Type=RS41-SGP ser=S4270394 Radiosonde auto_rx v1.5.9
EA4EKH-11S42703942022-12-06 01:06:1243.3889-7.788841264426450Clb=5.1m/s t=-61.9C h=1.7% p=19.0hPa 404.001 MHz Type=RS41-SGP ser=S4270394 Radiosonde
CT7AUS-11S42703942022-12-06 01:06:0743.3892-7.789381123326426Clb=4.9m/s t=-61.7C h=1.7% p=19.1hPa 404.000 MHz Type=RS41-SGP ser=S4270394 Radiosonde
EB4FMT-14S42703942022-12-06 01:06:0143.3897-7.790661193726380Clb=4.3m/s t=-61.5C h=1.6% p=19.2hPa 404.001 MHz Type=RS41-SGP ser=S4270394 Radiosonde auto_rx v1.5.9
EA1JAY-15S42703942022-12-06 01:05:5943.3901-7.791511263526335Clb=4.6m/s t=-61.3C 404.000MHz Type=RS41-SGP rdzTTGOsonde
CT7AUS-11S42703942022-12-06 01:05:5743.3906-7.792341402626292Clb=4.3m/s t=-61.0C h=1.6% p=19.5hPa 404.000 MHz Type=RS41-SGP ser=S4270394 Radiosonde
EB4FMT-14S42703942022-12-06 01:05:5643.3911-7.793011342026249Clb=5.0m/s t=-61.1C h=1.5% p=19.7hPa 404.001 MHz Type=RS41-SGP ser=S4270394 Radiosonde auto_rx v1.5.9
EA4EKH-11S42703942022-12-06 01:05:5343.3919-7.793761732026185Clb=4.8m/s t=-61.1C h=1.6% p=19.9hPa 404.001 MHz Type=RS41-SGP ser=S4270394 Radiosonde
CT7AUS-11S42703942022-12-06 01:05:5243.3921-7.793841632626158Clb=3.6m/s t=-61.5C h=1.6% p=19.9hPa 404.000 MHz Type=RS41-SGP ser=S4270394 Radiosonde
EB4FMT-14S42703942022-12-06 01:05:5143.3928-7.794011893026120Clb=4.4m/s t=-61.6C h=1.6% p=20.1hPa 404.001 MHz Type=RS41-SGP ser=S4270394 Radiosonde auto_rx v1.5.9
EA1JAY-15S42703942022-12-06 01:05:4843.3938-7.794021902226062Clb=3.7m/s t=-61.3C 404.000MHz Type=RS41-SGP rdzTTGOsonde
CT7AUS-11S42703942022-12-06 01:05:4543.3942-7.794291472026026Clb=4.5m/s t=-61.1C h=1.6% p=20.4hPa 404.000 MHz Type=RS41-SGP ser=S4270394 Radiosonde
EA1JAY-15S42703942022-12-06 01:05:4143.3951-7.795061482025947Clb=3.7m/s t=-60.9C 404.000MHz Type=RS41-SGP rdzTTGOsonde
EA4EKH-11S42703942022-12-06 01:05:3743.3955-7.795761262825904Clb=4.9m/s t=-60.7C h=1.5% p=20.8hPa 404.001 MHz Type=RS41-SGP ser=S4270394 Radiosonde
CT7AUS-11S42703942022-12-06 01:05:3143.3956-7.796081152225885Clb=4.7m/s t=-60.6C h=1.5% p=20.8hPa 404.000 MHz Type=RS41-SGP ser=S4270394 Radiosonde
EB4FMT-14S42703942022-12-06 01:05:2343.3958-7.79661993725851Clb=4.9m/s t=-60.8C h=1.5% p=21.0hPa 404.001 MHz Type=RS41-SGP ser=S4270394 Radiosonde auto_rx v1.5.9
EA1JAY-15S42703942022-12-06 01:05:2043.3958-7.796861063725842Clb=5.0m/s t=-61.1C 404.000MHz Type=RS41-SGP rdzTTGOsonde
EA4EKH-11S42703942022-12-06 01:05:0743.396-7.79858963725765Clb=4.1m/s t=-61.3C h=1.6% p=21.2hPa 404.001 MHz Type=RS41-SGP ser=S4270394 Radiosonde
EA1JAY-15S42703942022-12-06 01:05:0243.3959-7.79891371925739Clb=4.8m/s t=-61.2C 404.000MHz Type=RS41-SGP rdzTTGOsonde
EB4FMT-14S42703942022-12-06 01:05:0043.3958-7.79959993325705Clb=4.9m/s t=-61.1C h=1.6% p=21.5hPa 404.001 MHz Type=RS41-SGP ser=S4270394 Radiosonde auto_rx v1.5.9
EA4EKH-11S42703942022-12-06 01:04:5943.3958-7.801981125614Clb=4.8m/s t=-60.4C h=1.6% p=21.8hPa 404.001 MHz Type=RS41-SGP ser=S4270394 Radiosonde
EA4EKH-11S42703942022-12-06 01:04:5643.3959-7.80226132725465Clb=4.7m/s t=-60.0C h=1.5% p=22.3hPa 404.001 MHz Type=RS41-SGP ser=S4270394 Radiosonde
CT7AUS-11S42703942022-12-06 01:04:5243.396-7.802411491725430Clb=5.1m/s t=-59.8C h=1.5% p=22.4hPa 404.000 MHz Type=RS41-SGP ser=S4270394 Radiosonde
EB4FMT-14S42703942022-12-06 01:04:5043.3961-7.802481641525417Clb=5.3m/s t=-59.8C h=1.5% p=22.5hPa 404.001 MHz Type=RS41-SGP ser=S4270394 Radiosonde auto_rx v1.5.9
EA1JAY-15S42703942022-12-06 01:04:4643.3962-7.80248202725403Clb=4.0m/s t=-59.7C 404.000MHz Type=RS41-SGP rdzTTGOsonde
EA4EKH-11S42703942022-12-06 01:04:2843.3968-7.80251521725313Clb=3.9m/s t=-59.8C h=1.5% p=22.9hPa 404.001 MHz Type=RS41-SGP ser=S4270394 Radiosonde
EA1JAY-15S42703942022-12-06 01:04:1843.397-7.802552001725284Clb=5.4m/s t=-60.0C 404.000MHz Type=RS41-SGP rdzTTGOsonde
EB4FMT-14S42703942022-12-06 01:04:1643.3971-7.802492062225276Clb=3.6m/s t=-59.9C h=1.6% p=23.0hPa 404.001 MHz Type=RS41-SGP ser=S4270394 Radiosonde auto_rx v1.5.9
EA4EKH-11S42703942022-12-06 01:03:4743.398-7.802391551325176Clb=4.5m/s t=-59.4C h=1.5% p=23.4hPa 404.001 MHz Type=RS41-SGP ser=S4270394 Radiosonde
CT7AUS-11S42703942022-12-06 01:03:3943.3983-7.802581611525145Clb=5.0m/s t=-59.3C h=1.4% p=23.5hPa 404.000 MHz Type=RS41-SGP ser=S4270394 Radiosonde
EB4FMT-14S42703942022-12-06 01:03:3743.3983-7.80261631125140Clb=4.2m/s t=-59.3C h=1.4% p=23.5hPa 404.001 MHz Type=RS41-SGP ser=S4270394 Radiosonde auto_rx v1.5.9
EA4EKH-11S42703942022-12-06 01:03:0443.3988-7.80363981925036Clb=3.7m/s t=-60.0C h=1.5% p=23.9hPa 404.001 MHz Type=RS41-SGP ser=S4270394 Radiosonde
CT7AUS-11S42703942022-12-06 01:02:5643.3989-7.80403911925010Clb=4.1m/s t=-60.1C h=1.5% p=24.0hPa 404.000 MHz Type=RS41-SGP ser=S4270394 Radiosonde
EA4EKH-11S42703942022-12-06 01:02:2443.399-7.805788924903Clb=4.3m/s t=-60.4C h=1.6% p=24.4hPa 404.001 MHz Type=RS41-SGP ser=S4270394 Radiosonde
EB4FMT-14S42703942022-12-06 01:02:1743.3991-7.805981072024882Clb=3.8m/s t=-60.4C h=1.5% p=24.5hPa 404.001 MHz Type=RS41-SGP ser=S4270394 Radiosonde auto_rx v1.5.9
CT7AUS-11S42703942022-12-06 01:02:1543.3991-7.806061132424879Clb=3.8m/s t=-60.4C h=1.5% p=24.5hPa 404.000 MHz Type=RS41-SGP ser=S4270394 Radiosonde
EA4EKH-11S42703942022-12-06 01:01:4343.4-7.807731382824770Clb=3.7m/s t=-60.4C h=1.5% p=24.9hPa 404.001 MHz Type=RS41-SGP ser=S4270394 Radiosonde
EB4FMT-14S42703942022-12-06 01:01:3443.4002-7.807951371724753Clb=4.0m/s t=-60.4C h=1.6% p=25.0hPa 404.001 MHz Type=RS41-SGP ser=S4270394 Radiosonde auto_rx v1.5.9
CT7AUS-11S42703942022-12-06 01:01:3143.4002-7.808031391724745Clb=4.0m/s t=-60.5C h=1.6% p=25.1hPa 404.000 MHz Type=RS41-SGP ser=S4270394 Radiosonde
EA4EKH-11S42703942022-12-06 01:00:5643.4012-7.808761661524634Clb=4.7m/s t=-60.8C h=1.6% p=25.5hPa 404.001 MHz Type=RS41-SGP ser=S4270394 Radiosonde
EB4FMT-14S42703942022-12-06 01:00:5143.4013-7.80881611924619Clb=4.0m/s t=-60.8C h=1.6% p=25.6hPa 404.001 MHz Type=RS41-SGP ser=S4270394 Radiosonde auto_rx v1.5.9
CT7AUS-11S42703942022-12-06 01:00:4643.4015-7.808891612824606Clb=5.0m/s t=-60.9C h=1.6% p=25.7hPa 404.000 MHz Type=RS41-SGP ser=S4270394 Radiosonde
EA4EKH-11S42703942022-12-06 01:00:1143.4029-7.809831573024493Clb=4.5m/s t=-60.8C h=1.6% p=26.1hPa 404.001 MHz Type=RS41-SGP ser=S4270394 Radiosonde
EB4FMT-14S42703942022-12-06 01:00:0843.403-7.809931533524484Clb=4.7m/s t=-60.9C h=1.6% p=26.1hPa 404.001 MHz Type=RS41-SGP ser=S4270394 Radiosonde auto_rx v1.5.9
CT7AUS-11S42703942022-12-06 01:00:0143.4033-7.810161553524466Clb=4.5m/s t=-60.9C h=1.6% p=26.2hPa 404.000 MHz Type=RS41-SGP ser=S4270394 Radiosonde
EA4EKH-11S42703942022-12-06 00:59:3043.4053-7.811331483724351Clb=4.5m/s t=-60.3C h=1.5% p=26.7hPa 404.001 MHz Type=RS41-SGP ser=S4270394 Radiosonde
EB4FMT-14S42703942022-12-06 00:59:2843.4054-7.811391513924347Clb=5.1m/s t=-60.3C h=1.6% p=26.7hPa 404.001 MHz Type=RS41-SGP ser=S4270394 Radiosonde auto_rx v1.5.9
CT7AUS-11S42703942022-12-06 00:59:2043.4058-7.811661563724322Clb=4.4m/s t=-60.1C h=1.5% p=26.8hPa 404.000 MHz Type=RS41-SGP ser=S4270394 Radiosonde
EB4FMT-14S42703942022-12-06 00:58:4643.4072-7.812851392624201Clb=5.0m/s t=-60.5C h=1.6% p=27.4hPa 404.001 MHz Type=RS41-SGP ser=S4270394 Radiosonde auto_rx v1.5.9
CT7AUS-11S42703942022-12-06 00:58:3843.4076-7.813091602624171Clb=4.2m/s t=-60.5C h=1.6% p=27.5hPa 404.000 MHz Type=RS41-SGP ser=S4270394 Radiosonde
EB4FMT-14S42703942022-12-06 00:58:0443.4087-7.813721522024056Clb=4.2m/s t=-60.1C h=1.6% p=28.0hPa 404.001 MHz Type=RS41-SGP ser=S4270394 Radiosonde auto_rx v1.5.9
EA4EKH-11S42703942022-12-06 00:58:0343.4087-7.813721522024056Clb=4.2m/s t=-60.1C h=1.6% p=28.0hPa 404.001 MHz Type=RS41-SGP ser=S4270394 Radiosonde
CT7AUS-11S42703942022-12-06 00:57:5543.409-7.81391602824028Clb=4.7m/s t=-60.2C h=1.6% p=28.2hPa 404.000 MHz Type=RS41-SGP ser=S4270394 Radiosonde
EB4FMT-14S42703942022-12-06 00:57:2043.4101-7.814651642623925Clb=4.8m/s t=-60.5C h=1.6% p=28.6hPa 404.001 MHz Type=RS41-SGP ser=S4270394 Radiosonde auto_rx v1.5.9
EA4EKH-11S42703942022-12-06 00:57:1643.4103-7.814691733323917Clb=4.0m/s t=-60.6C h=1.6% p=28.6hPa 404.001 MHz Type=RS41-SGP ser=S4270394 Radiosonde
CT7AUS-11S42703942022-12-06 00:57:0643.4108-7.814761602823889Clb=3.9m/s t=-60.6C h=1.6% p=28.8hPa 404.000 MHz Type=RS41-SGP ser=S4270394 Radiosonde
EB4FMT-14S42703942022-12-06 00:56:3643.4123-7.814711802223793Clb=4.1m/s t=-60.8C h=1.7% p=29.2hPa 404.001 MHz Type=RS41-SGP ser=S4270394 Radiosonde auto_rx v1.5.9
EA4EKH-11S42703942022-12-06 00:56:3043.4125-7.81471893023781Clb=5.2m/s t=-60.7C h=1.6% p=29.3hPa 404.001 MHz Type=RS41-SGP ser=S4270394 Radiosonde
CT7AUS-11S42703942022-12-06 00:56:2143.413-7.814511983023756Clb=3.2m/s t=-60.7C h=1.6% p=29.4hPa 404.000 MHz Type=RS41-SGP ser=S4270394 Radiosonde
EB4FMT-14S42703942022-12-06 00:55:5143.4142-7.813912101523671Clb=4.7m/s t=-60.7C h=1.6% p=29.8hPa 404.001 MHz Type=RS41-SGP ser=S4270394 Radiosonde auto_rx v1.5.9
EA4EKH-11S42703942022-12-06 00:55:4543.4144-7.813822062023655Clb=4.2m/s t=-60.6C h=1.6% p=29.9hPa 404.001 MHz Type=RS41-SGP ser=S4270394 Radiosonde
CT7AUS-11S42703942022-12-06 00:55:3643.4147-7.813522331923622Clb=3.8m/s t=-60.9C h=1.6% p=30.1hPa 404.000 MHz Type=RS41-SGP ser=S4270394 Radiosonde
EB4FMT-14S42703942022-12-06 00:55:0843.4154-7.812652242823550Clb=4.3m/s t=-61.0C h=1.7% p=30.4hPa 404.001 MHz Type=RS41-SGP ser=S4270394 Radiosonde auto_rx v1.5.9
EA4EKH-11S42703942022-12-06 00:54:5843.4157-7.812362123123530Clb=3.5m/s t=-60.9C h=1.6% p=30.5hPa 404.001 MHz Type=RS41-SGP ser=S4270394 Radiosonde
CT7AUS-11S42703942022-12-06 00:54:5043.4161-7.812122142423506Clb=4.8m/s t=-61.0C h=1.6% p=30.6hPa 404.000 MHz Type=RS41-SGP ser=S4270394 Radiosonde
EB4FMT-14S42703942022-12-06 00:54:2343.4173-7.811052203723427Clb=4.8m/s t=-61.2C h=1.7% p=31.0hPa 404.001 MHz Type=RS41-SGP ser=S4270394 Radiosonde auto_rx v1.5.9
EA4EKH-11S42703942022-12-06 00:54:1243.4178-7.810652054323401Clb=3.7m/s t=-61.3C h=1.7% p=31.1hPa 404.001 MHz Type=RS41-SGP ser=S4270394 Radiosonde
CT7AUS-11S42703942022-12-06 00:54:0243.4183-7.810282213923375Clb=4.2m/s t=-61.3C h=1.7% p=31.3hPa 404.000 MHz Type=RS41-SGP ser=S4270394 Radiosonde
EB4FMT-14S42703942022-12-06 00:53:3643.4197-7.809092073523298Clb=4.6m/s t=-61.0C h=1.6% p=31.7hPa 404.001 MHz Type=RS41-SGP ser=S4270394 Radiosonde auto_rx v1.5.9
EA4EKH-11S42703942022-12-06 00:53:2443.4202-7.808761973023267Clb=4.6m/s t=-60.9C h=1.6% p=31.8hPa 404.001 MHz Type=RS41-SGP ser=S4270394 Radiosonde
CT7AUS-11S42703942022-12-06 00:53:1443.4206-7.808482063123241Clb=4.7m/s t=-61.0C h=1.6% p=32.0hPa 404.000 MHz Type=RS41-SGP ser=S4270394 Radiosonde
EB4FMT-14S42703942022-12-06 00:52:4843.4218-7.808041862023162Clb=4.8m/s t=-61.1C h=1.7% p=32.4hPa 404.001 MHz Type=RS41-SGP ser=S4270394 Radiosonde auto_rx v1.5.9
EA4EKH-11S42703942022-12-06 00:52:3443.4224-7.807982012423120Clb=4.1m/s t=-60.9C h=1.7% p=32.6hPa 404.001 MHz Type=RS41-SGP ser=S4270394 Radiosonde
CT7AUS-11S42703942022-12-06 00:52:2443.4227-7.807881852223097Clb=4.9m/s t=-60.7C h=1.7% p=32.7hPa 404.000 MHz Type=RS41-SGP ser=S4270394 Radiosonde
EB4FMT-14S42703942022-12-06 00:52:0043.4236-7.807821792023022Clb=5.7m/s t=-60.5C h=1.6% p=33.1hPa 404.001 MHz Type=RS41-SGP ser=S4270394 Radiosonde auto_rx v1.5.9
EA4EKH-11S42703942022-12-06 00:51:5043.4241-7.807631912422975Clb=5.6m/s t=-60.5C h=1.7% p=33.4hPa 404.001 MHz Type=RS41-SGP ser=S4270394 Radiosonde
CT7AUS-11S42703942022-12-06 00:51:4543.4245-7.807591901922946Clb=4.7m/s t=-60.4C h=1.7% p=33.5hPa 404.000 MHz Type=RS41-SGP ser=S4270394 Radiosonde
EB4FMT-14S42703942022-12-06 00:51:3143.4252-7.807361981522880Clb=4.2m/s t=-60.0C h=1.6% p=33.9hPa 404.001 MHz Type=RS41-SGP ser=S4270394 Radiosonde auto_rx v1.5.9
EA4EKH-11S42703942022-12-06 00:51:1943.4256-7.807111971922828Clb=4.1m/s t=-60.0C h=1.6% p=34.2hPa 404.001 MHz Type=RS41-SGP ser=S4270394 Radiosonde
CT7AUS-11S42703942022-12-06 00:51:1443.4258-7.806972011322799Clb=4.3m/s t=-60.3C h=1.6% p=34.4hPa 404.000 MHz Type=RS41-SGP ser=S4270394 Radiosonde
EA1JAY-15S42703942022-12-06 00:51:1243.4258-7.806972021322799Clb=4.3m/s t=-60.3C 404.000MHz Type=RS41 rdzTTGOsonde
EB4FMT-14S42703942022-12-06 00:51:0043.4263-7.806542261122738Clb=4.7m/s t=-61.0C h=1.7% p=34.6hPa 404.001 MHz Type=RS41-SGP ser=S4270394 Radiosonde auto_rx v1.5.9
EA4EKH-11S42703942022-12-06 00:50:4843.4266-7.806182041922684Clb=5.1m/s t=-61.2C h=1.7% p=35.0hPa 404.001 MHz Type=RS41-SGP ser=S4270394 Radiosonde
EA1JAY-15S42703942022-12-06 00:50:4643.4266-7.806182051922684Clb=5.1m/s t=-61.2C 404.000MHz Type=RS41 rdzTTGOsonde
CT7AUS-11S42703942022-12-06 00:50:4543.4268-7.805972091522655Clb=4.1m/s t=-61.2C h=1.7% p=-1.0hPa 404.000 MHz Type=RS41-SGP ser=S4270394 Radiosonde
EB4FMT-14S42703942022-12-06 00:50:3143.4275-7.805412222822601Clb=4.2m/s t=-61.3C h=1.7% p=35.4hPa 404.001 MHz Type=RS41-SGP ser=S4270394 Radiosonde auto_rx v1.5.9
EA4EKH-11S42703942022-12-06 00:50:1843.4283-7.804871983922544Clb=4.7m/s t=-61.6C h=1.8% p=35.8hPa 404.001 MHz Type=RS41-SGP ser=S4270394 Radiosonde
CT7AUS-11S42703942022-12-06 00:50:1143.4287-7.804631992422516Clb=4.8m/s t=-61.6C h=-1.0% p=-1.0hPa 404.000 MHz Type=RS41-SGP ser=S4270394 Radiosonde
EB4FMT-14S42703942022-12-06 00:50:0043.4297-7.804462092022465Clb=4.3m/s t=-61.4C h=1.8% p=36.2hPa 404.001 MHz Type=RS41-SGP ser=S4270394 Radiosonde auto_rx v1.5.9
EA4EKH-11S42703942022-12-06 00:49:4643.4305-7.804431761722410Clb=4.6m/s t=-61.1C h=1.7% p=36.5hPa 404.001 MHz Type=RS41-SGP ser=S4270394 Radiosonde
EA1JAY-15S42703942022-12-06 00:49:4043.4313-7.799752041921451Clb=4.9m/s 404.000MHz Type=RS41 rdzTTGOsonde
EA1JAY-15S42703942022-12-06 00:49:3643.4319-7.799451881521359Clb=4.3m/s 404.000MHz Type=RS41 rdzTTGOsonde
EB4FMT-14S42703942022-12-06 00:49:3543.4322-7.799511531521315Clb=5.2m/s t=-61.0C h=1.7% p=43.7hPa 404.001 MHz Type=RS41-SGP ser=S4270394 Radiosonde auto_rx v1.5.9
EA1JAY-15S42703942022-12-06 00:49:3443.4324-7.799761521721265Clb=5.1m/s 404.000MHz Type=RS41 rdzTTGOsonde
EB4FMT-14S42703942022-12-06 00:49:3343.4327-7.800411031121182Clb=4.2m/s t=-60.5C h=1.7% p=44.6hPa 404.001 MHz Type=RS41-SGP ser=S4270394 Radiosonde auto_rx v1.5.9
EA1JAY-15S42703942022-12-06 00:49:3243.4328-7.80079154921093Clb=4.7m/s 404.000MHz Type=RS41 rdzTTGOsonde
EB4FMT-14S42703942022-12-06 00:49:3143.4331-7.80081261621060Clb=3.4m/s t=-60.3C h=1.7% p=45.5hPa 404.001 MHz Type=RS41-SGP ser=S4270394 Radiosonde auto_rx v1.5.9
EA1JAY-15S42703942022-12-06 00:49:3043.4332-7.80073149721013Clb=3.5m/s 404.000MHz Type=RS41 rdzTTGOsonde
EA1JAY-15S42703942022-12-06 00:49:2943.4331-7.80038209620896Clb=4.7m/s 404.000MHz Type=RS41 rdzTTGOsonde
EB4FMT-14S42703942022-12-06 00:49:2843.4334-7.79982361720825Clb=4.0m/s t=-60.5C h=1.7% p=47.3hPa 404.001 MHz Type=RS41-SGP ser=S4270394 Radiosonde auto_rx v1.5.9
EA1JAY-15S42703942022-12-06 00:49:2443.4335-7.799532551520806Clb=3.6m/s 404.000MHz Type=RS41 rdzTTGOsonde
EA1JAY-15S42703942022-12-06 00:48:5743.4337-7.798782381120725Clb=4.5m/s 404.000MHz Type=RS41 rdzTTGOsonde
EA1JAY-15S42703942022-12-06 00:48:1943.434-7.797772521520638Clb=3.4m/s 404.000MHz Type=RS41 rdzTTGOsonde
EB4FMT-14S42703942022-12-06 00:48:0143.4342-7.796962251720579Clb=3.4m/s t=-60.2C h=1.8% p=49.2hPa 404.001 MHz Type=RS41-SGP ser=S4270394 Radiosonde auto_rx v1.5.9
EA1JAY-15S42703942022-12-06 00:47:3843.4344-7.796592342220545Clb=4.7m/s 404.000MHz Type=RS41 rdzTTGOsonde
EB4FMT-14S42703942022-12-06 00:47:0443.4352-7.795792111920465Clb=3.6m/s t=-59.5C h=1.6% p=50.1hPa 404.001 MHz Type=RS41-SGP ser=S4270394 Radiosonde auto_rx v1.5.9
EB4FMT-14S42703942022-12-06 00:46:1043.4372-7.795311711720281Clb=3.3m/s t=-60.6C h=1.7% p=51.6hPa 404.001 MHz Type=RS41-SGP ser=S4270394 Radiosonde auto_rx v1.5.9
EB4FMT-14S42703942022-12-06 00:45:1743.4381-7.795541652420223Clb=3.6m/s t=-60.5C h=1.8% p=52.1hPa 404.001 MHz Type=RS41-SGP ser=S4270394 Radiosonde auto_rx v1.5.9
EB4FMT-14S42703942022-12-06 00:44:2743.4403-7.797031323020088Clb=3.6m/s t=-61.2C h=1.8% p=53.2hPa 404.001 MHz Type=RS41-SGP ser=S4270394 Radiosonde auto_rx v1.5.9
EB4FMT-14S42703942022-12-06 00:43:3343.4411-7.798651401719976Clb=3.4m/s t=-61.4C h=1.9% p=54.2hPa 404.001 MHz Type=RS41-SGP ser=S4270394 Radiosonde auto_rx v1.5.9
EB4FMT-14S42703942022-12-06 00:42:3743.4424-7.79978148719798Clb=4.4m/s t=-61.7C h=1.9% p=55.8hPa 404.001 MHz Type=RS41-SGP ser=S4270394 Radiosonde auto_rx v1.5.9
EB4FMT-14S42703942022-12-06 00:41:3843.4426-7.800671221119667Clb=4.4m/s t=-61.9C h=1.9% p=57.0hPa 404.001 MHz Type=RS41-SGP ser=S4270394 Radiosonde auto_rx v1.5.9
EB4FMT-14S42703942022-12-06 00:39:4743.4447-7.800741822619451Clb=3.6m/s t=-61.8C h=2.0% p=59.0hPa 404.001 MHz Type=RS41-SGP ser=S4270394 Radiosonde auto_rx v1.5.9
EB4FMT-14S42703942022-12-06 00:38:5343.4459-7.801231481719362Clb=3.8m/s t=-61.6C h=2.0% p=59.9hPa 404.001 MHz Type=RS41-SGP ser=S4270394 Radiosonde auto_rx v1.5.9
EB4FMT-14S42703942022-12-06 00:38:0043.4469-7.802121552219274Clb=3.9m/s t=-62.1C h=2.0% p=60.7hPa 404.001 MHz Type=RS41-SGP ser=S4270394 Radiosonde auto_rx v1.5.9
EB4FMT-14S42703942022-12-06 00:36:5543.4481-7.803991142219156Clb=3.6m/s t=-62.3C h=2.1% p=61.9hPa 404.001 MHz Type=RS41-SGP ser=S4270394 Radiosonde auto_rx v1.5.9
EB4FMT-14S42703942022-12-06 00:36:0043.4485-7.806551011919039Clb=3.6m/s t=-62.3C h=2.1% p=63.1hPa 404.001 MHz Type=RS41-SGP ser=S4270394 Radiosonde auto_rx v1.5.9
EB4FMT-14S42703942022-12-06 00:35:3643.4486-7.808399918921Clb=3.8m/s t=-61.9C h=2.1% p=64.3hPa 404.001 MHz Type=RS41-SGP ser=S4270394 Radiosonde auto_rx v1.5.9
EB4FMT-14S42703942022-12-06 00:35:0043.4486-7.8093385218801Clb=4.8m/s t=-61.9C h=2.1% p=65.5hPa 404.001 MHz Type=RS41-SGP ser=S4270394 Radiosonde auto_rx v1.5.9
EB4FMT-14S42703942022-12-06 00:34:3343.4487-7.80934226218685Clb=4.1m/s t=-61.9C h=2.0% p=66.8hPa 404.001 MHz Type=RS41-SGP ser=S4270394 Radiosonde auto_rx v1.5.9
EB4FMT-14S42703942022-12-06 00:34:0043.4491-7.810296918566Clb=4.2m/s t=-62.1C h=2.1% p=68.1hPa 404.001 MHz Type=RS41-SGP ser=S4270394 Radiosonde auto_rx v1.5.9
EB4FMT-14S42703942022-12-06 00:33:3043.4494-7.811671171718451Clb=3.5m/s t=-61.6C h=2.1% p=69.4hPa 404.001 MHz Type=RS41-SGP ser=S4270394 Radiosonde auto_rx v1.5.9
EB4FMT-14S42703942022-12-06 00:32:5843.4487-7.86175935416474Clb=3.5m/s t=-61.4C h=2.6% p=95.5hPa 404.001 MHz Type=RS41-SGP ser=S4270394 Radiosonde auto_rx v1.5.9
EB4FMT-14S42703942022-12-06 00:32:0043.4484-7.86673794116361Clb=4.3m/s t=-61.2C h=2.6% p=97.3hPa 404.001 MHz Type=RS41-SGP ser=S4270394 Radiosonde auto_rx v1.5.9
EB4FMT-14S42703942022-12-06 00:31:0243.4479-7.87065773316250Clb=4.0m/s t=-61.0C h=2.6% p=99.0hPa 404.001 MHz Type=RS41-SGP ser=S4270394 Radiosonde auto_rx v1.5.9
EB4FMT-14S42703942022-12-06 00:30:0743.4475-7.87344952216144Clb=3.6m/s t=-61.1C h=2.7% p=100.8hPa 404.001 MHz Type=RS41-SGP ser=S4270394 Radiosonde auto_rx v1.5.9
EB4FMT-14S42703942022-12-06 00:29:1243.4479-7.876551103316031Clb=4.3m/s t=-61.4C h=2.7% p=102.6hPa 404.001 MHz Type=RS41-SGP ser=S4270394 Radiosonde auto_rx v1.5.9
EB4FMT-14S42703942022-12-06 00:28:1543.449-7.881031075415926Clb=3.8m/s t=-62.6C h=3.0% p=104.3hPa 404.001 MHz Type=RS41-SGP ser=S4270394 Radiosonde auto_rx v1.5.9
EB4FMT-14S42703942022-12-06 00:27:1943.4499-7.88631985015821Clb=3.4m/s t=-62.3C h=3.0% p=106.1hPa 404.001 MHz Type=RS41-SGP ser=S4270394 Radiosonde auto_rx v1.5.9
EB4FMT-14S42703942022-12-06 00:26:1943.4505-7.89153965715717Clb=3.8m/s t=-62.2C h=2.9% p=108.0hPa 404.001 MHz Type=RS41-SGP ser=S4270394 Radiosonde auto_rx v1.5.9
EB4FMT-14S42703942022-12-06 00:25:2243.4506-7.89803897215610Clb=3.6m/s t=-62.4C h=2.8% p=109.8hPa 404.001 MHz Type=RS41-SGP ser=S4270394 Radiosonde auto_rx v1.5.9
EB4FMT-14S42703942022-12-06 00:24:2343.45-7.90508846115507Clb=3.2m/s t=-62.1C h=2.8% p=111.7hPa 404.001 MHz Type=RS41-SGP ser=S4270394 Radiosonde auto_rx v1.5.9
EB4FMT-14S42703942022-12-06 00:23:2743.4488-7.91107755715399Clb=3.5m/s t=-61.3C h=2.6% p=113.7hPa 404.001 MHz Type=RS41-SGP ser=S4270394 Radiosonde auto_rx v1.5.9
EB4FMT-14S42703942022-12-06 00:22:2843.4474-7.91642725215292Clb=3.9m/s t=-61.0C h=2.6% p=115.6hPa 404.001 MHz Type=RS41-SGP ser=S4270394 Radiosonde auto_rx v1.5.9
EB4FMT-14S42703942022-12-06 00:21:3343.4466-7.92135804415183Clb=4.3m/s t=-60.3C h=2.4% p=117.7hPa 404.001 MHz Type=RS41-SGP ser=S4270394 Radiosonde auto_rx v1.5.9
EB4FMT-14S42703942022-12-06 00:20:3843.4463-7.92605874415075Clb=2.7m/s t=-60.0C h=2.4% p=119.7hPa 404.001 MHz Type=RS41-SGP ser=S4270394 Radiosonde auto_rx v1.5.9
EB4FMT-14S42703942022-12-06 00:19:4043.446-7.93084904814967Clb=3.3m/s t=-59.9C h=2.4% p=121.8hPa 404.001 MHz Type=RS41-SGP ser=S4270394 Radiosonde auto_rx v1.5.9
EB4FMT-14S42703942022-12-06 00:18:4643.4461-7.93559915014864Clb=3.0m/s t=-60.1C h=2.4% p=123.8hPa 404.001 MHz Type=RS41-SGP ser=S4270394 Radiosonde auto_rx v1.5.9
EB4FMT-14S42703942022-12-06 00:17:5143.4465-7.94135916314757Clb=3.2m/s t=-60.4C h=2.5% p=126.0hPa 404.001 MHz Type=RS41-SGP ser=S4270394 Radiosonde auto_rx v1.5.9
EB4FMT-14S42703942022-12-06 00:16:5243.4468-7.94774905714650Clb=3.1m/s t=-60.1C h=2.4% p=128.1hPa 404.001 MHz Type=RS41-SGP ser=S4270394 Radiosonde auto_rx v1.5.9
EB4FMT-14S42703942022-12-06 00:16:0043.4471-7.95344975714543Clb=3.7m/s t=-59.5C h=2.3% p=130.4hPa 404.001 MHz Type=RS41-SGP ser=S4270394 Radiosonde auto_rx v1.5.9
EB4FMT-14S42703942022-12-06 00:15:3443.448-7.95919965414432Clb=3.3m/s t=-59.0C h=2.2% p=132.7hPa 404.001 MHz Type=RS41-SGP ser=S4270394 Radiosonde auto_rx v1.5.9
EB4FMT-14S42703942022-12-06 00:15:0143.4487-7.96583966914316Clb=4.3m/s t=-58.7C h=2.2% p=135.2hPa 404.001 MHz Type=RS41-SGP ser=S4270394 Radiosonde auto_rx v1.5.9
EB4FMT-14S42703942022-12-06 00:14:4243.449-7.97293946314200Clb=3.2m/s t=-58.5C h=2.2% p=137.7hPa 404.001 MHz Type=RS41-SGP ser=S4270394 Radiosonde auto_rx v1.5.9
EB4FMT-14S42703942022-12-06 00:14:2343.4493-7.97974946114088Clb=4.0m/s t=-58.5C h=2.2% p=140.2hPa 404.001 MHz Type=RS41-SGP ser=S4270394 Radiosonde auto_rx v1.5.9
EB4FMT-14S42703942022-12-06 00:13:5943.4492-7.98575895713976Clb=4.2m/s t=-58.3C h=2.3% p=142.6hPa 404.001 MHz Type=RS41-SGP ser=S4270394 Radiosonde auto_rx v1.5.9
EB4FMT-14S42703942022-12-06 00:13:5043.4495-7.99373956913837Clb=3.8m/s t=-57.4C h=2.3% p=145.8hPa 404.001 MHz Type=RS41-SGP ser=S4270394 Radiosonde auto_rx v1.5.9
EB4FMT-14S42703942022-12-06 00:13:4343.4499-7.99877987413758Clb=3.8m/s t=-57.8C h=2.4% p=147.7hPa 404.001 MHz Type=RS41-SGP ser=S4270394 Radiosonde auto_rx v1.5.9
EB4FMT-14S42703942022-12-06 00:13:3943.4506-8.00671967613653Clb=2.9m/s t=-57.8C h=2.4% p=150.2hPa 404.001 MHz Type=RS41-SGP ser=S4270394 Radiosonde auto_rx v1.5.9
EB4FMT-14S42703942022-12-06 00:13:3643.4514-8.013991007013552Clb=4.0m/s t=-58.1C h=2.6% p=152.5hPa 404.001 MHz Type=RS41-SGP ser=S4270394 Radiosonde auto_rx v1.5.9
EB4FMT-14S42703942022-12-06 00:13:2343.452-8.0213937013451Clb=3.6m/s t=-57.5C h=2.5% p=155.0hPa 404.001 MHz Type=RS41-SGP ser=S4270394 Radiosonde auto_rx v1.5.9
EB4FMT-14S42703942022-12-06 00:13:0043.4521-8.02883917013347Clb=4.3m/s t=-57.4C h=2.6% p=157.6hPa 404.001 MHz Type=RS41-SGP ser=S4270394 Radiosonde auto_rx v1.5.9
EB4FMT-14S42703942022-12-06 00:12:5943.4521-8.03571855913237Clb=3.2m/s t=-57.4C h=2.7% p=160.4hPa 404.001 MHz Type=RS41-SGP ser=S4270394 Radiosonde auto_rx v1.5.9
EB4FMT-14S42703942022-12-06 00:12:5743.4518-8.04183865913130Clb=3.9m/s t=-57.2C h=2.7% p=163.1hPa 404.001 MHz Type=RS41-SGP ser=S4270394 Radiosonde auto_rx v1.5.9
EB4FMT-14S42703942022-12-06 00:12:5343.4513-8.0484846113020Clb=2.7m/s t=-56.9C h=2.7% p=166.0hPa 404.001 MHz Type=RS41-SGP ser=S4270394 Radiosonde auto_rx v1.5.9
EB4FMT-14S42703942022-12-06 00:12:0743.4511-8.05487866312909Clb=3.1m/s t=-57.2C h=2.9% p=168.9hPa 404.001 MHz Type=RS41-SGP ser=S4270394 Radiosonde auto_rx v1.5.9
EB4FMT-14S42703942022-12-06 00:11:1343.451-8.06126916912803Clb=3.2m/s t=-56.9C h=3.2% p=171.8hPa 404.001 MHz Type=RS41-SGP ser=S4270394 Radiosonde auto_rx v1.5.9
EB4FMT-14S42703942022-12-06 00:10:1643.4512-8.06846917012702Clb=2.9m/s t=-57.1C h=3.7% p=174.6hPa 404.001 MHz Type=RS41-SGP ser=S4270394 Radiosonde auto_rx v1.5.9
EB4FMT-14S42703942022-12-06 00:09:2143.4511-8.07596866912602Clb=3.7m/s t=-57.7C h=4.5% p=177.3hPa 404.001 MHz Type=RS41-SGP ser=S4270394 Radiosonde auto_rx v1.5.9
EB4FMT-14S42703942022-12-06 00:08:2443.4504-8.0829796712502Clb=2.7m/s t=-57.8C h=5.0% p=180.1hPa 404.001 MHz Type=RS41-SGP ser=S4270394 Radiosonde auto_rx v1.5.9
EB4FMT-14S42703942022-12-06 00:07:3043.4492-8.08912785612403Clb=3.4m/s t=-57.6C h=5.4% p=183.0hPa 404.001 MHz Type=RS41-SGP ser=S4270394 Radiosonde auto_rx v1.5.9
EB4FMT-14S42703942022-12-06 00:06:3843.4483-8.09393724412298Clb=3.3m/s t=-57.3C h=5.7% p=186.0hPa 404.001 MHz Type=RS41-SGP ser=S4270394 Radiosonde auto_rx v1.5.9
EB4FMT-14S42703942022-12-06 00:05:4243.4473-8.09882775712196Clb=4.0m/s t=-57.3C h=6.4% p=189.1hPa 404.001 MHz Type=RS41-SGP ser=S4270394 Radiosonde auto_rx v1.5.9
EB4FMT-14S42703942022-12-06 00:04:4943.4459-8.10434655612090Clb=3.8m/s t=-57.4C h=6.9% p=192.3hPa 404.001 MHz Type=RS41-SGP ser=S4270394 Radiosonde auto_rx v1.5.9
EB4FMT-14S42703942022-12-06 00:04:0043.4444-8.10983745711977Clb=4.4m/s t=-56.8C h=6.5% p=195.7hPa 404.001 MHz Type=RS41-SGP ser=S4270394 Radiosonde auto_rx v1.5.9
EB4FMT-14S42703942022-12-06 00:03:3343.4433-8.115725011862Clb=5.1m/s t=-56.0C h=6.5% p=199.3hPa 404.001 MHz Type=RS41-SGP ser=S4270394 Radiosonde auto_rx v1.5.9
EB4FMT-14S42703942022-12-06 00:03:0043.4424-8.1204845711732Clb=3.1m/s t=-55.5C h=7.3% p=203.4hPa 404.001 MHz Type=RS41-SGP ser=S4270394 Radiosonde auto_rx v1.5.9
EB4FMT-14S42703942022-12-06 00:02:3043.442-8.12687857211626Clb=3.2m/s t=-55.4C h=8.4% p=206.8hPa 404.001 MHz Type=RS41-SGP ser=S4270394 Radiosonde auto_rx v1.5.9
EB4FMT-14S42703942022-12-06 00:02:0043.4415-8.13392826711524Clb=3.8m/s t=-55.1C h=10.6% p=210.2hPa 404.001 MHz Type=RS41-SGP ser=S4270394 Radiosonde auto_rx v1.5.9
EB4FMT-14S42703942022-12-06 00:01:3243.4407-8.14115787211422Clb=4.3m/s t=-56.4C h=17.7% p=213.6hPa 404.001 MHz Type=RS41-SGP ser=S4270394 Radiosonde auto_rx v1.5.9
EB4FMT-14S42703942022-12-06 00:01:0043.4396-8.14821796711321Clb=3.2m/s t=-57.5C h=25.3% p=217.0hPa 404.001 MHz Type=RS41-SGP ser=S4270394 Radiosonde auto_rx v1.5.9
EB4FMT-14S42703942022-12-06 00:00:5243.4373-8.15991715611113Clb=3.8m/s t=-57.3C h=30.9% p=224.2hPa 404.001 MHz Type=RS41-SGP ser=S4270394 Radiosonde auto_rx v1.5.9
EB4FMT-14S42703942022-12-06 00:00:4443.4361-8.16478764311011Clb=3.2m/s t=-57.8C h=32.8% p=227.9hPa 404.001 MHz Type=RS41-SGP ser=S4270394 Radiosonde auto_rx v1.5.9
EB4FMT-14S42703942022-12-06 00:00:3743.4351-8.16971725010906Clb=4.3m/s t=-57.5C h=26.7% p=231.8hPa 404.001 MHz Type=RS41-SGP ser=S4270394 Radiosonde auto_rx v1.5.9
EB4FMT-14S42703942022-12-06 00:00:3243.4338-8.17444644310802Clb=3.6m/s t=-57.0C h=25.3% p=235.5hPa 404.001 MHz Type=RS41-SGP ser=S4270394 Radiosonde auto_rx v1.5.9
EB4FMT-14S42703942022-12-06 00:00:2843.4324-8.17865664410698Clb=3.4m/s t=-56.2C h=26.3% p=239.5hPa 404.001 MHz Type=RS41-SGP ser=S4270394 Radiosonde auto_rx v1.5.9
EB4FMT-14S42703942022-12-05 23:59:4143.431-8.18309665010592Clb=3.6m/s t=-55.6C h=29.8% p=243.5hPa 404.001 MHz Type=RS41-SGP ser=S4270394 Radiosonde auto_rx v1.5.9
EB4FMT-14S42703942022-12-05 23:58:4843.4295-8.18783675010486Clb=3.0m/s t=-54.9C h=30.9% p=247.6hPa 404.001 MHz Type=RS41-SGP ser=S4270394 Radiosonde auto_rx v1.5.9
EB4FMT-14S42703942022-12-05 23:57:5743.4281-8.19268685210380Clb=3.7m/s t=-54.2C h=30.9% p=251.7hPa 404.001 MHz Type=RS41-SGP ser=S4270394 Radiosonde auto_rx v1.5.9
EB4FMT-14S42703942022-12-05 23:57:0243.4265-8.19733604610274Clb=3.1m/s t=-53.4C h=29.5% p=255.8hPa 404.001 MHz Type=RS41-SGP ser=S4270394 Radiosonde auto_rx v1.5.9
EB4FMT-14S42703942022-12-05 23:56:0743.4251-8.20174664110168Clb=3.5m/s t=-52.4C h=27.6% p=260.1hPa 404.001 MHz Type=RS41-SGP ser=S4270394 Radiosonde auto_rx v1.5.9
EB4FMT-14S42703942022-12-05 23:56:0043.4239-8.20593704110067Clb=3.0m/s t=-51.7C h=29.4% p=264.2hPa 404.001 MHz Type=RS41-SGP ser=S4270394 Radiosonde auto_rx v1.5.9
EB4FMT-14S42703942022-12-05 23:55:5643.4225-8.2101568469962Clb=4.2m/s t=-51.0C h=26.2% p=268.5hPa 404.001 MHz Type=RS41-SGP ser=S4270394 Radiosonde auto_rx v1.5.9
EB4FMT-14S42703942022-12-05 23:55:1543.4213-8.2152872569843Clb=3.6m/s t=-50.0C h=15.9% p=273.4hPa 404.001 MHz Type=RS41-SGP ser=S4270394 Radiosonde auto_rx v1.5.9
EB4FMT-14S42703942022-12-05 23:54:2843.42-8.2203471529741Clb=3.0m/s t=-49.3C h=10.3% p=277.7hPa 404.001 MHz Type=RS41-SGP ser=S4270394 Radiosonde auto_rx v1.5.9
EB4FMT-14S42703942022-12-05 23:53:4043.4189-8.2256873599637Clb=2.9m/s t=-48.9C h=8.2% p=282.1hPa 404.001 MHz Type=RS41-SGP ser=S4270394 Radiosonde auto_rx v1.5.9
EB4FMT-14S42703942022-12-05 23:52:5043.4178-8.2317873639538Clb=3.1m/s t=-48.3C h=7.8% p=286.4hPa 404.001 MHz Type=RS41-SGP ser=S4270394 Radiosonde auto_rx v1.5.9
EB4FMT-14S42703942022-12-05 23:52:0043.4165-8.2378971619441Clb=2.8m/s t=-47.9C h=7.4% p=290.7hPa 404.001 MHz Type=RS41-SGP ser=S4270394 Radiosonde auto_rx v1.5.9
EB4FMT-14S42703942022-12-05 23:51:3043.4148-8.2434566549330Clb=3.4m/s t=-47.0C h=6.5% p=295.5hPa 404.001 MHz Type=RS41-SGP ser=S4270394 Radiosonde auto_rx v1.5.9
EB4FMT-14S42703942022-12-05 23:51:1643.4135-8.2484971529226Clb=3.5m/s t=-46.0C h=6.2% p=300.2hPa 404.001 MHz Type=RS41-SGP ser=S4270394 Radiosonde auto_rx v1.5.9
EB4FMT-14S42703942022-12-05 23:51:1443.4123-8.2532377469125Clb=3.2m/s t=-46.2C h=8.3% p=304.8hPa 404.001 MHz Type=RS41-SGP ser=S4270394 Radiosonde auto_rx v1.5.9
EB4FMT-14S42703942022-12-05 23:51:0543.412-8.2584188529020Clb=3.7m/s t=-45.9C h=8.7% p=309.6hPa 404.001 MHz Type=RS41-SGP ser=S4270394 Radiosonde auto_rx v1.5.9
EB4FMT-14S42703942022-12-05 23:50:2243.4118-8.2639590528922Clb=3.4m/s t=-45.2C h=8.5% p=314.3hPa 404.001 MHz Type=RS41-SGP ser=S4270394 Radiosonde auto_rx v1.5.9
EB4FMT-14S42703942022-12-05 23:49:3543.4117-8.2695390528818Clb=3.5m/s t=-44.4C h=8.5% p=319.1hPa 404.001 MHz Type=RS41-SGP ser=S4270394 Radiosonde auto_rx v1.5.9
EB4FMT-14S42703942022-12-05 23:48:4643.4115-8.2751785568716Clb=3.4m/s t=-43.8C h=10.3% p=324.0hPa 404.001 MHz Type=RS41-SGP ser=S4270394 Radiosonde auto_rx v1.5.9
EB4FMT-14S42703942022-12-05 23:48:0043.4112-8.2807984508611Clb=3.3m/s t=-42.9C h=8.2% p=329.1hPa 404.001 MHz Type=RS41-SGP ser=S4270394 Radiosonde auto_rx v1.5.9
EB4FMT-14S42703942022-12-05 23:47:3043.4108-8.2862682528503Clb=4.1m/s t=-42.0C h=7.9% p=334.3hPa 404.001 MHz Type=RS41-SGP ser=S4270394 Radiosonde auto_rx v1.5.9
EB4FMT-14S42703942022-12-05 23:47:0043.4106-8.2917683548393Clb=3.9m/s t=-41.3C h=9.1% p=339.9hPa 404.001 MHz Type=RS41-SGP ser=S4270394 Radiosonde auto_rx v1.5.9
EB4FMT-14S42703942022-12-05 23:46:4943.4102-8.2974185548284Clb=3.8m/s t=-40.9C h=13.4% p=345.3hPa 404.001 MHz Type=RS41-SGP ser=S4270394 Radiosonde auto_rx v1.5.9
EB4FMT-14S42703942022-12-05 23:46:4843.4098-8.3029986548170Clb=3.6m/s t=-40.6C h=29.1% p=351.1hPa 404.001 MHz Type=RS41-SGP ser=S4270394 Radiosonde auto_rx v1.5.9
EB4FMT-14S42703942022-12-05 23:46:1743.4091-8.3083480488053Clb=3.4m/s t=-39.4C h=26.4% p=357.2hPa 404.001 MHz Type=RS41-SGP ser=S4270394 Radiosonde auto_rx v1.5.9
EB4FMT-14S42703942022-12-05 23:45:3043.4084-8.3136677547930Clb=4.7m/s t=-38.3C h=23.2% p=363.7hPa 404.001 MHz Type=RS41-SGP ser=S4270394 Radiosonde auto_rx v1.5.9
EB4FMT-14S42703942022-12-05 23:44:4243.4078-8.3191881577815Clb=4.7m/s t=-37.1C h=21.2% p=369.7hPa 404.001 MHz Type=RS41-SGP ser=S4270394 Radiosonde auto_rx v1.5.9
EB4FMT-14S42703942022-12-05 23:44:0043.4071-8.3247277567692Clb=4.3m/s t=-35.9C h=18.9% p=376.3hPa 404.001 MHz Type=RS41-SGP ser=S4270394 Radiosonde auto_rx v1.5.9
EB4FMT-14S42703942022-12-05 23:43:3043.4065-8.3302683527571Clb=3.7m/s t=-34.8C h=17.3% p=383.0hPa 404.001 MHz Type=RS41-SGP ser=S4270394 Radiosonde auto_rx v1.5.9
EB4FMT-14S42703942022-12-05 23:43:0043.4059-8.3357385577453Clb=4.5m/s t=-33.6C h=16.1% p=389.5hPa 404.001 MHz Type=RS41-SGP ser=S4270394 Radiosonde auto_rx v1.5.9
EB4FMT-14S42703942022-12-05 23:42:3043.4054-8.3413583567320Clb=4.5m/s t=-32.4C h=14.8% p=396.9hPa 404.001 MHz Type=RS41-SGP ser=S4270394 Radiosonde auto_rx v1.5.9
EB4FMT-14S42703942022-12-05 23:42:2743.405-8.3468288567193Clb=3.6m/s t=-31.2C h=11.7% p=404.1hPa 404.001 MHz Type=RS41-SGP ser=S4270394 Radiosonde auto_rx v1.5.9
EB4FMT-14S42703942022-12-05 23:42:1143.4046-8.3519887487069Clb=3.2m/s t=-30.0C h=7.9% p=411.4hPa 404.001 MHz Type=RS41-SGP ser=S4270394 Radiosonde auto_rx v1.5.9
EB4FMT-14S42703942022-12-05 23:41:2643.4039-8.3567773486921Clb=4.6m/s t=-28.7C h=5.3% p=419.8hPa 404.001 MHz Type=RS41-SGP ser=S4270394 Radiosonde auto_rx v1.5.9
EB4FMT-14S42703942022-12-05 23:40:4143.4029-8.3611170436768Clb=6.6m/s t=-27.5C h=4.7% p=428.9hPa 404.001 MHz Type=RS41-SGP ser=S4270394 Radiosonde auto_rx v1.5.9
EA1JAY-15S42703942022-12-05 23:40:3643.4028-8.3613661396757Clb=5.1m/s t=-27.4C 404.000MHz Type=RS41 rdzTTGOsonde
EB4FMT-14S42703942022-12-05 23:40:0043.4015-8.3648462396651Clb=3.5m/s t=-27.0C h=8.7% p=435.9hPa 404.001 MHz Type=RS41-SGP ser=S4270394 Radiosonde auto_rx v1.5.9
EA1JAY-15S42703942022-12-05 23:39:5743.4014-8.3649664416647Clb=3.7m/s 404.000MHz Type=RS41 rdzTTGOsonde
EB4FMT-14S42703942022-12-05 23:39:3043.4-8.3687166416536Clb=4.0m/s t=-26.4C h=11.3% p=442.9hPa 404.001 MHz Type=RS41-SGP ser=S4270394 Radiosonde auto_rx v1.5.9
EB4FMT-14S42703942022-12-05 23:39:0043.3988-8.372566376427Clb=3.5m/s t=-25.7C h=11.9% p=449.6hPa 404.001 MHz Type=RS41-SGP ser=S4270394 Radiosonde auto_rx v1.5.9
EB4FMT-14S42703942022-12-05 23:38:3043.3977-8.3758263356311Clb=3.2m/s t=-24.8C h=10.5% p=456.7hPa 404.001 MHz Type=RS41-SGP ser=S4270394 Radiosonde auto_rx v1.5.9
EB4FMT-14S42703942022-12-05 23:38:0043.3972-8.3792384396181Clb=3.9m/s t=-23.8C h=14.8% p=465.0hPa 404.001 MHz Type=RS41-SGP ser=S4270394 Radiosonde auto_rx v1.5.9
EB4FMT-14S42703942022-12-05 23:37:5843.397-8.3830782376054Clb=4.0m/s t=-22.7C h=9.8% p=473.1hPa 404.001 MHz Type=RS41-SGP ser=S4270394 Radiosonde auto_rx v1.5.9
EB4FMT-14S42703942022-12-05 23:37:2943.397-8.3865393305926Clb=5.6m/s t=-21.8C h=10.2% p=481.5hPa 404.001 MHz Type=RS41-SGP ser=S4270394 Radiosonde auto_rx v1.5.9
EB4FMT-14S42703942022-12-05 23:36:4243.3969-8.389785265802Clb=3.4m/s t=-20.7C h=10.6% p=489.6hPa 404.001 MHz Type=RS41-SGP ser=S4270394 Radiosonde auto_rx v1.5.9
EB4FMT-14S42703942022-12-05 23:36:0043.3968-8.3926584265683Clb=4.5m/s t=-19.6C h=10.3% p=497.5hPa 404.001 MHz Type=RS41-SGP ser=S4270394 Radiosonde auto_rx v1.5.9
EA1JAY-15S42703942022-12-05 23:35:3843.3965-8.394680245593Clb=5.4m/s 404.000MHz Type=RS41 rdzTTGOsonde
EB4FMT-14S42703942022-12-05 23:35:3043.3964-8.3954886245541Clb=6.6m/s t=-18.3C h=8.0% p=507.1hPa 404.001 MHz Type=RS41-SGP ser=S4270394 Radiosonde auto_rx v1.5.9
EB4FMT-14S42703942022-12-05 23:35:0043.3959-8.3979884195404Clb=4.2m/s t=-17.2C h=3.8% p=516.4hPa 404.001 MHz Type=RS41-SGP ser=S4270394 Radiosonde auto_rx v1.5.9
EB4FMT-14S42703942022-12-05 23:34:3043.3956-8.4006487225293Clb=3.1m/s t=-16.1C h=3.7% p=524.1hPa 404.001 MHz Type=RS41-SGP ser=S4270394 Radiosonde auto_rx v1.5.9
EB4FMT-14S42703942022-12-05 23:34:0043.3954-8.403587265184Clb=3.4m/s t=-15.2C h=3.0% p=531.8hPa 404.001 MHz Type=RS41-SGP ser=S4270394 Radiosonde auto_rx v1.5.9
EB4FMT-14S42703942022-12-05 23:33:3743.3952-8.4063789305081Clb=3.5m/s t=-14.2C h=2.9% p=539.1hPa 404.001 MHz Type=RS41-SGP ser=S4270394 Radiosonde auto_rx v1.5.9
EB4FMT-14S42703942022-12-05 23:33:1943.395-8.4091678284958Clb=2.6m/s t=-13.2C h=3.7% p=547.8hPa 404.001 MHz Type=RS41-SGP ser=S4270394 Radiosonde auto_rx v1.5.9
EA1JAY-15S42703942022-12-05 23:32:5243.3949-8.4109880304890Clb=4.3m/s 404.000MHz Type=RS41 rdzTTGOsonde
EB4FMT-14S42703942022-12-05 23:32:3843.3947-8.4120581284848Clb=4.0m/s t=-12.3C h=3.9% p=555.9hPa 404.001 MHz Type=RS41-SGP ser=S4270394 Radiosonde auto_rx v1.5.9
EB4FMT-14S42703942022-12-05 23:32:0043.3945-8.4148988284734Clb=4.5m/s t=-12.4C h=7.7% p=564.1hPa 404.001 MHz Type=RS41-SGP ser=S4270394 Radiosonde auto_rx v1.5.9
EB4FMT-14S42703942022-12-05 23:31:3043.3946-8.4178292244613Clb=4.4m/s t=-11.9C h=9.6% p=573.1hPa 404.001 MHz Type=RS41-SGP ser=S4270394 Radiosonde auto_rx v1.5.9
EA1JAY-15S42703942022-12-05 23:31:0243.3947-8.4199298194513Clb=3.9m/s 404.000MHz Type=RS41 rdzTTGOsonde
EB4FMT-14S42703942022-12-05 23:31:0043.3948-8.42022102284497Clb=4.5m/s t=-11.3C h=11.0% p=581.9hPa 404.001 MHz Type=RS41-SGP ser=S4270394 Radiosonde auto_rx v1.5.9
EB4FMT-14S42703942022-12-05 23:30:3043.3949-8.4220791154350Clb=6.4m/s t=-9.9C h=9.4% p=593.1hPa 404.001 MHz Type=RS41-SGP ser=S4270394 Radiosonde auto_rx v1.5.9
EB4FMT-14S42703942022-12-05 23:30:0043.3949-8.4235994174237Clb=4.1m/s t=-9.2C h=10.7% p=602.0hPa 404.001 MHz Type=RS41-SGP ser=S4270394 Radiosonde auto_rx v1.5.9
EB4FMT-14S42703942022-12-05 23:29:3043.3946-8.4250858114126Clb=4.5m/s t=-8.8C h=34.6% p=610.5hPa 404.001 MHz Type=RS41-SGP ser=S4270394 Radiosonde auto_rx v1.5.9
EB4FMT-14S42703942022-12-05 23:29:1143.3941-8.4261863114013Clb=4.5m/s t=-7.8C h=35.3% p=619.5hPa 404.001 MHz Type=RS41-SGP ser=S4270394 Radiosonde auto_rx v1.5.9
EB4FMT-14S42703942022-12-05 23:28:3743.3936-8.4272759153901Clb=4.1m/s t=-6.9C h=26.9% p=628.5hPa 404.001 MHz Type=RS41-SGP ser=S4270394 Radiosonde auto_rx v1.5.9
EB4FMT-14S42703942022-12-05 23:28:0043.393-8.4282443173787Clb=4.6m/s t=-6.1C h=31.7% p=637.9hPa 404.001 MHz Type=RS41-SGP ser=S4270394 Radiosonde auto_rx v1.5.9
EB4FMT-14S42703942022-12-05 23:27:3043.3924-8.4290240113652Clb=2.8m/s t=-5.5C h=45.4% p=648.6hPa 404.001 MHz Type=RS41-SGP ser=S4270394 Radiosonde auto_rx v1.5.9
EB4FMT-14S42703942022-12-05 23:27:0043.3915-8.4331193548Clb=3.5m/s t=-4.8C h=50.2% p=657.4hPa 404.001 MHz Type=RS41-SGP ser=S4270394 Radiosonde auto_rx v1.5.9
EB4FMT-14S42703942022-12-05 23:26:3043.3904-8.4308430153429Clb=3.5m/s t=-4.0C h=48.5% p=667.4hPa 404.001 MHz Type=RS41-SGP ser=S4270394 Radiosonde auto_rx v1.5.9
EB4FMT-14S42703942022-12-05 23:26:0043.3897-8.4312841153297Clb=4.3m/s t=-3.7C h=50.2% p=678.5hPa 404.001 MHz Type=RS41-SGP ser=S4270394 Radiosonde auto_rx v1.5.9
EB4FMT-14S42703942022-12-05 23:25:3043.3888-8.4320233173184Clb=4.2m/s t=-3.2C h=55.7% p=688.6hPa 404.001 MHz Type=RS41-SGP ser=S4270394 Radiosonde auto_rx v1.5.9
EB4FMT-14S42703942022-12-05 23:25:0243.3873-8.4331813263053Clb=4.2m/s t=-2.8C h=73.9% p=700.0hPa 404.001 MHz Type=RS41-SGP ser=S4270394 Radiosonde auto_rx v1.5.9
EB4FMT-14S42703942022-12-05 23:24:3543.3854-8.4339827262914Clb=5.2m/s t=-2.5C h=82.7% p=712.2hPa 404.001 MHz Type=RS41-SGP ser=S4270394 Radiosonde auto_rx v1.5.9
EB4FMT-14S42703942022-12-05 23:24:0043.3838-8.434859202758Clb=5.4m/s t=-1.7C h=89.6% p=726.6hPa 404.001 MHz Type=RS41-SGP ser=S4270394 Radiosonde auto_rx v1.5.9
EB4FMT-14S42703942022-12-05 23:23:3043.3821-8.435168242605Clb=5.5m/s t=-0.7C h=88.3% p=740.4hPa 404.001 MHz Type=RS41-SGP ser=S4270394 Radiosonde auto_rx v1.5.9
EB4FMT-14S42703942022-12-05 23:23:0043.3804-8.4348354302472Clb=5.2m/s t=0.1C h=86.7% p=752.9hPa 404.001 MHz Type=RS41-SGP ser=S4270394 Radiosonde auto_rx v1.5.9
EB4FMT-14S42703942022-12-05 23:22:3043.3787-8.43449356262326Clb=5.1m/s t=1.2C h=83.1% p=766.7hPa 404.001 MHz Type=RS41-SGP ser=S4270394 Radiosonde auto_rx v1.5.9
EB4FMT-14S42703942022-12-05 23:22:0043.377-8.4345511172183Clb=4.2m/s t=1.0C h=89.2% p=780.3hPa 404.001 MHz Type=RS41-SGP ser=S4270394 Radiosonde auto_rx v1.5.9
EB4FMT-14S42703942022-12-05 23:21:3043.3756-8.435158222068Clb=3.2m/s t=2.1C h=85.1% p=791.6hPa 404.001 MHz Type=RS41-SGP ser=S4270394 Radiosonde auto_rx v1.5.9
EB4FMT-14S42703942022-12-05 23:21:0043.3742-8.4361221221924Clb=5.1m/s t=3.3C h=81.4% p=805.9hPa 404.001 MHz Type=RS41-SGP ser=S4270394 Radiosonde auto_rx v1.5.9
EB4FMT-14S42703942022-12-05 23:20:3143.373-8.43702871777Clb=5.6m/s t=4.1C h=83.4% p=820.8hPa 404.001 MHz Type=RS41-SGP ser=S4270394 Radiosonde auto_rx v1.5.9
EB4FMT-14S42703942022-12-05 23:20:0043.3722-8.4374710131620Clb=4.3m/s t=5.0C h=82.3% p=836.5hPa 404.001 MHz Type=RS41-SGP ser=S4270394 Radiosonde auto_rx v1.5.9
EB4FMT-14S42703942022-12-05 23:19:3043.3714-8.43759359171478Clb=3.4m/s t=5.6C h=82.1% p=851.4hPa 404.001 MHz Type=RS41-SGP ser=S4270394 Radiosonde auto_rx v1.5.9
EB4FMT-14S42703942022-12-05 23:19:0043.3707-8.437912771340Clb=3.1m/s t=5.8C h=85.3% p=865.8hPa 404.001 MHz Type=RS41-SGP ser=S4270394 Radiosonde auto_rx v1.5.9
EB4FMT-14S42703942022-12-05 23:18:3043.3699-8.43834359131191Clb=5.0m/s t=6.9C h=-1.0% p=881.4hPa 404.001 MHz Type=RS41-SGP ser=S4270394 Radiosonde auto_rx v1.5.9
EB4FMT-14S42703942022-12-05 23:18:0043.3693-8.438589491045Clb=4.4m/s t=-273.0C h=-1.0% p=-1.0hPa 404.001 MHz Type=RS41-SGP ser=S4270394 Radiosonde auto_rx v1.5.9